<?xml version="1.0" encoding="UTF-8" standalone="no" ?>
<gpx xmlns="http://www.topografix.com/GPX/1/1" xmlns:xsi="http://www.w3.org/2001/XMLSchema-instance" xsi:schemaLocation="http://www.topografix.com/GPX/1/1 http://www.topografix.com/GPX/1/1/gpx.xsd" version="1.1" creator="VisuGPX - https://www.visugpx.com">
  <metadata>
    <name>CORSE - PEDESTRE - sentier de Campu Romanellu &amp;amp; Pertusatu</name>
    <desc><![CDATA[sur les hauteurs]]></desc>
  </metadata>
  <trk>
    <name><![CDATA[ACTIVE LOG 002]]></name>
    <trkseg>
      <trkpt lat="41.37427" lon="9.17924">
        <ele>102.51770019531</ele>
        <time>2015-06-21T06:40:16Z</time>
      </trkpt>
      <trkpt lat="41.37427" lon="9.17924">
        <ele>102.51770019531</ele>
        <time>2015-06-21T06:40:17Z</time>
      </trkpt>
      <trkpt lat="41.37423" lon="9.17926">
        <ele>102.99829101562</ele>
        <time>2015-06-21T06:40:47Z</time>
      </trkpt>
      <trkpt lat="41.37422" lon="9.17926">
        <ele>102.99829101562</ele>
        <time>2015-06-21T06:40:48Z</time>
      </trkpt>
      <trkpt lat="41.37403" lon="9.17928">
        <ele>102.99829101562</ele>
        <time>2015-06-21T06:41:07Z</time>
      </trkpt>
      <trkpt lat="41.37388" lon="9.17936">
        <ele>102.51770019531</ele>
        <time>2015-06-21T06:41:23Z</time>
      </trkpt>
      <trkpt lat="41.37387" lon="9.17937">
        <ele>102.51770019531</ele>
        <time>2015-06-21T06:41:28Z</time>
      </trkpt>
      <trkpt lat="41.3737" lon="9.17937">
        <ele>103.47900390625</ele>
        <time>2015-06-21T06:41:43Z</time>
      </trkpt>
      <trkpt lat="41.37338" lon="9.17942">
        <ele>102.037109375</ele>
        <time>2015-06-21T06:42:10Z</time>
      </trkpt>
      <trkpt lat="41.37333" lon="9.17947">
        <ele>101.55639648438</ele>
        <time>2015-06-21T06:42:25Z</time>
      </trkpt>
      <trkpt lat="41.37325" lon="9.17958">
        <ele>100.11450195312</ele>
        <time>2015-06-21T06:42:40Z</time>
      </trkpt>
      <trkpt lat="41.37313" lon="9.17979">
        <ele>96.749877929688</ele>
        <time>2015-06-21T06:43:01Z</time>
      </trkpt>
      <trkpt lat="41.37297" lon="9.18">
        <ele>94.346557617188</ele>
        <time>2015-06-21T06:43:22Z</time>
      </trkpt>
      <trkpt lat="41.37283" lon="9.1803">
        <ele>91.462524414062</ele>
        <time>2015-06-21T06:43:48Z</time>
      </trkpt>
      <trkpt lat="41.3727" lon="9.18058">
        <ele>88.098022460938</ele>
        <time>2015-06-21T06:44:10Z</time>
      </trkpt>
      <trkpt lat="41.37256" lon="9.1809">
        <ele>84.7333984375</ele>
        <time>2015-06-21T06:44:33Z</time>
      </trkpt>
      <trkpt lat="41.3724" lon="9.18117">
        <ele>82.810791015625</ele>
        <time>2015-06-21T06:44:55Z</time>
      </trkpt>
      <trkpt lat="41.37218" lon="9.18112">
        <ele>81.368774414062</ele>
        <time>2015-06-21T06:45:15Z</time>
      </trkpt>
      <trkpt lat="41.37211" lon="9.18099">
        <ele>81.849365234375</ele>
        <time>2015-06-21T06:45:31Z</time>
      </trkpt>
      <trkpt lat="41.37206" lon="9.18102">
        <ele>83.291381835938</ele>
        <time>2015-06-21T06:45:43Z</time>
      </trkpt>
      <trkpt lat="41.37196" lon="9.18111">
        <ele>85.694580078125</ele>
        <time>2015-06-21T06:46:01Z</time>
      </trkpt>
      <trkpt lat="41.37189" lon="9.18118">
        <ele>86.656005859375</ele>
        <time>2015-06-21T06:46:14Z</time>
      </trkpt>
      <trkpt lat="41.37174" lon="9.18118">
        <ele>88.098022460938</ele>
        <time>2015-06-21T06:46:33Z</time>
      </trkpt>
      <trkpt lat="41.3716" lon="9.18112">
        <ele>85.213989257812</ele>
        <time>2015-06-21T06:46:53Z</time>
      </trkpt>
      <trkpt lat="41.3715" lon="9.18113">
        <ele>82.330078125</ele>
        <time>2015-06-21T06:47:10Z</time>
      </trkpt>
      <trkpt lat="41.3714" lon="9.18112">
        <ele>79.926635742188</ele>
        <time>2015-06-21T06:47:28Z</time>
      </trkpt>
      <trkpt lat="41.37136" lon="9.18113">
        <ele>78.965454101562</ele>
        <time>2015-06-21T06:47:44Z</time>
      </trkpt>
      <trkpt lat="41.37126" lon="9.18112">
        <ele>77.042846679688</ele>
        <time>2015-06-21T06:48:00Z</time>
      </trkpt>
      <trkpt lat="41.37116" lon="9.18111">
        <ele>74.639526367188</ele>
        <time>2015-06-21T06:48:17Z</time>
      </trkpt>
      <trkpt lat="41.37106" lon="9.18108">
        <ele>73.67822265625</ele>
        <time>2015-06-21T06:48:32Z</time>
      </trkpt>
      <trkpt lat="41.37087" lon="9.18105">
        <ele>73.197631835938</ele>
        <time>2015-06-21T06:48:51Z</time>
      </trkpt>
      <trkpt lat="41.3707" lon="9.18115">
        <ele>72.716918945312</ele>
        <time>2015-06-21T06:49:08Z</time>
      </trkpt>
      <trkpt lat="41.37057" lon="9.18121">
        <ele>74.639526367188</ele>
        <time>2015-06-21T06:49:25Z</time>
      </trkpt>
      <trkpt lat="41.37053" lon="9.18121">
        <ele>75.120239257812</ele>
        <time>2015-06-21T06:49:30Z</time>
      </trkpt>
      <trkpt lat="41.37041" lon="9.18126">
        <ele>78.004028320312</ele>
        <time>2015-06-21T06:49:48Z</time>
      </trkpt>
      <trkpt lat="41.37035" lon="9.18129">
        <ele>79.446044921875</ele>
        <time>2015-06-21T06:49:56Z</time>
      </trkpt>
      <trkpt lat="41.37016" lon="9.18152">
        <ele>80.407470703125</ele>
        <time>2015-06-21T06:50:20Z</time>
      </trkpt>
      <trkpt lat="41.37003" lon="9.18184">
        <ele>80.407470703125</ele>
        <time>2015-06-21T06:50:41Z</time>
      </trkpt>
      <trkpt lat="41.36991" lon="9.18227">
        <ele>79.926635742188</ele>
        <time>2015-06-21T06:51:07Z</time>
      </trkpt>
      <trkpt lat="41.36976" lon="9.18273">
        <ele>82.330078125</ele>
        <time>2015-06-21T06:51:36Z</time>
      </trkpt>
      <trkpt lat="41.3695" lon="9.18298">
        <ele>81.368774414062</ele>
        <time>2015-06-21T06:52:00Z</time>
      </trkpt>
      <trkpt lat="41.36925" lon="9.18324">
        <ele>80.407470703125</ele>
        <time>2015-06-21T06:52:24Z</time>
      </trkpt>
      <trkpt lat="41.36898" lon="9.18356">
        <ele>79.446044921875</ele>
        <time>2015-06-21T06:52:51Z</time>
      </trkpt>
      <trkpt lat="41.36869" lon="9.18385">
        <ele>78.484741210938</ele>
        <time>2015-06-21T06:53:19Z</time>
      </trkpt>
      <trkpt lat="41.36842" lon="9.18406">
        <ele>78.484741210938</ele>
        <time>2015-06-21T06:53:44Z</time>
      </trkpt>
      <trkpt lat="41.3683" lon="9.18437">
        <ele>78.965454101562</ele>
        <time>2015-06-21T06:54:06Z</time>
      </trkpt>
      <trkpt lat="41.36823" lon="9.18465">
        <ele>77.042846679688</ele>
        <time>2015-06-21T06:54:25Z</time>
      </trkpt>
      <trkpt lat="41.36821" lon="9.18493">
        <ele>77.042846679688</ele>
        <time>2015-06-21T06:54:44Z</time>
      </trkpt>
      <trkpt lat="41.36819" lon="9.18514">
        <ele>76.081420898438</ele>
        <time>2015-06-21T06:55:04Z</time>
      </trkpt>
      <trkpt lat="41.36819" lon="9.18504">
        <ele>76.081420898438</ele>
        <time>2015-06-21T06:55:26Z</time>
      </trkpt>
      <trkpt lat="41.36821" lon="9.18492">
        <ele>76.081420898438</ele>
        <time>2015-06-21T06:55:36Z</time>
      </trkpt>
      <trkpt lat="41.36822" lon="9.18488">
        <ele>76.081420898438</ele>
        <time>2015-06-21T06:55:39Z</time>
      </trkpt>
      <trkpt lat="41.36823" lon="9.18483">
        <ele>76.562133789062</ele>
        <time>2015-06-21T06:55:43Z</time>
      </trkpt>
      <trkpt lat="41.36824" lon="9.18451">
        <ele>77.5234375</ele>
        <time>2015-06-21T06:56:04Z</time>
      </trkpt>
      <trkpt lat="41.3683" lon="9.18425">
        <ele>78.484741210938</ele>
        <time>2015-06-21T06:56:23Z</time>
      </trkpt>
      <trkpt lat="41.36828" lon="9.18413">
        <ele>79.446044921875</ele>
        <time>2015-06-21T06:56:37Z</time>
      </trkpt>
      <trkpt lat="41.36832" lon="9.18409">
        <ele>79.926635742188</ele>
        <time>2015-06-21T06:56:41Z</time>
      </trkpt>
      <trkpt lat="41.3685" lon="9.18387">
        <ele>78.965454101562</ele>
        <time>2015-06-21T06:57:04Z</time>
      </trkpt>
      <trkpt lat="41.36856" lon="9.18356">
        <ele>78.484741210938</ele>
        <time>2015-06-21T06:57:25Z</time>
      </trkpt>
      <trkpt lat="41.36862" lon="9.18326">
        <ele>79.926635742188</ele>
        <time>2015-06-21T06:57:45Z</time>
      </trkpt>
      <trkpt lat="41.36871" lon="9.18294">
        <ele>80.407470703125</ele>
        <time>2015-06-21T06:58:08Z</time>
      </trkpt>
      <trkpt lat="41.36875" lon="9.18264">
        <ele>83.291381835938</ele>
        <time>2015-06-21T06:58:29Z</time>
      </trkpt>
      <trkpt lat="41.36878" lon="9.18237">
        <ele>82.810791015625</ele>
        <time>2015-06-21T06:58:50Z</time>
      </trkpt>
      <trkpt lat="41.36877" lon="9.18236">
        <ele>82.810791015625</ele>
        <time>2015-06-21T06:59:04Z</time>
      </trkpt>
      <trkpt lat="41.36878" lon="9.18244">
        <ele>83.77197265625</ele>
        <time>2015-06-21T06:59:18Z</time>
      </trkpt>
      <trkpt lat="41.36878" lon="9.18236">
        <ele>83.291381835938</ele>
        <time>2015-06-21T06:59:54Z</time>
      </trkpt>
      <trkpt lat="41.36883" lon="9.18236">
        <ele>82.810791015625</ele>
        <time>2015-06-21T07:00:01Z</time>
      </trkpt>
      <trkpt lat="41.36888" lon="9.18236">
        <ele>82.810791015625</ele>
        <time>2015-06-21T07:00:06Z</time>
      </trkpt>
      <trkpt lat="41.36899" lon="9.18231">
        <ele>83.77197265625</ele>
        <time>2015-06-21T07:00:17Z</time>
      </trkpt>
      <trkpt lat="41.36918" lon="9.18219">
        <ele>84.7333984375</ele>
        <time>2015-06-21T07:00:37Z</time>
      </trkpt>
      <trkpt lat="41.36921" lon="9.18215">
        <ele>84.7333984375</ele>
        <time>2015-06-21T07:00:41Z</time>
      </trkpt>
      <trkpt lat="41.36928" lon="9.18205">
        <ele>85.213989257812</ele>
        <time>2015-06-21T07:00:51Z</time>
      </trkpt>
      <trkpt lat="41.36942" lon="9.18192">
        <ele>84.7333984375</ele>
        <time>2015-06-21T07:01:07Z</time>
      </trkpt>
      <trkpt lat="41.36948" lon="9.18184">
        <ele>84.7333984375</ele>
        <time>2015-06-21T07:01:15Z</time>
      </trkpt>
      <trkpt lat="41.36951" lon="9.18177">
        <ele>84.7333984375</ele>
        <time>2015-06-21T07:01:21Z</time>
      </trkpt>
      <trkpt lat="41.36956" lon="9.18174">
        <ele>84.7333984375</ele>
        <time>2015-06-21T07:01:26Z</time>
      </trkpt>
      <trkpt lat="41.36973" lon="9.18165">
        <ele>83.291381835938</ele>
        <time>2015-06-21T07:01:45Z</time>
      </trkpt>
      <trkpt lat="41.36975" lon="9.18161">
        <ele>83.291381835938</ele>
        <time>2015-06-21T07:01:49Z</time>
      </trkpt>
      <trkpt lat="41.36989" lon="9.18151">
        <ele>79.926635742188</ele>
        <time>2015-06-21T07:02:06Z</time>
      </trkpt>
      <trkpt lat="41.37" lon="9.1815">
        <ele>78.965454101562</ele>
        <time>2015-06-21T07:02:20Z</time>
      </trkpt>
      <trkpt lat="41.37006" lon="9.18149">
        <ele>77.5234375</ele>
        <time>2015-06-21T07:02:28Z</time>
      </trkpt>
      <trkpt lat="41.37009" lon="9.18143">
        <ele>77.042846679688</ele>
        <time>2015-06-21T07:02:33Z</time>
      </trkpt>
      <trkpt lat="41.37013" lon="9.18117">
        <ele>74.639526367188</ele>
        <time>2015-06-21T07:02:56Z</time>
      </trkpt>
      <trkpt lat="41.37011" lon="9.18112">
        <ele>74.158813476562</ele>
        <time>2015-06-21T07:03:02Z</time>
      </trkpt>
      <trkpt lat="41.37003" lon="9.18107">
        <ele>72.716918945312</ele>
        <time>2015-06-21T07:03:12Z</time>
      </trkpt>
      <trkpt lat="41.36994" lon="9.18108">
        <ele>70.794189453125</ele>
        <time>2015-06-21T07:03:26Z</time>
      </trkpt>
      <trkpt lat="41.36989" lon="9.1811">
        <ele>68.87158203125</ele>
        <time>2015-06-21T07:03:43Z</time>
      </trkpt>
      <trkpt lat="41.36984" lon="9.18109">
        <ele>66.948974609375</ele>
        <time>2015-06-21T07:03:57Z</time>
      </trkpt>
      <trkpt lat="41.36979" lon="9.18117">
        <ele>65.507080078125</ele>
        <time>2015-06-21T07:04:13Z</time>
      </trkpt>
      <trkpt lat="41.36969" lon="9.18123">
        <ele>63.584350585938</ele>
        <time>2015-06-21T07:04:29Z</time>
      </trkpt>
      <trkpt lat="41.36964" lon="9.18126">
        <ele>62.622924804688</ele>
        <time>2015-06-21T07:04:43Z</time>
      </trkpt>
      <trkpt lat="41.36958" lon="9.1813">
        <ele>61.181030273438</ele>
        <time>2015-06-21T07:04:57Z</time>
      </trkpt>
      <trkpt lat="41.36954" lon="9.1813">
        <ele>59.739135742188</ele>
        <time>2015-06-21T07:05:10Z</time>
      </trkpt>
      <trkpt lat="41.36945" lon="9.18132">
        <ele>56.855102539062</ele>
        <time>2015-06-21T07:05:26Z</time>
      </trkpt>
      <trkpt lat="41.36941" lon="9.18133">
        <ele>54.932373046875</ele>
        <time>2015-06-21T07:05:39Z</time>
      </trkpt>
      <trkpt lat="41.36931" lon="9.18132">
        <ele>53.009765625</ele>
        <time>2015-06-21T07:05:57Z</time>
      </trkpt>
      <trkpt lat="41.36921" lon="9.1814">
        <ele>51.087158203125</ele>
        <time>2015-06-21T07:06:16Z</time>
      </trkpt>
      <trkpt lat="41.36915" lon="9.1814">
        <ele>48.203369140625</ele>
        <time>2015-06-21T07:06:31Z</time>
      </trkpt>
      <trkpt lat="41.36908" lon="9.18142">
        <ele>46.76123046875</ele>
        <time>2015-06-21T07:06:46Z</time>
      </trkpt>
      <trkpt lat="41.369" lon="9.18144">
        <ele>42.916015625</ele>
        <time>2015-06-21T07:07:00Z</time>
      </trkpt>
      <trkpt lat="41.36891" lon="9.1815">
        <ele>41.954711914062</ele>
        <time>2015-06-21T07:07:21Z</time>
      </trkpt>
      <trkpt lat="41.36881" lon="9.18151">
        <ele>38.590087890625</ele>
        <time>2015-06-21T07:07:37Z</time>
      </trkpt>
      <trkpt lat="41.36864" lon="9.18153">
        <ele>35.225463867188</ele>
        <time>2015-06-21T07:07:59Z</time>
      </trkpt>
      <trkpt lat="41.36851" lon="9.18153">
        <ele>34.26416015625</ele>
        <time>2015-06-21T07:08:14Z</time>
      </trkpt>
      <trkpt lat="41.36832" lon="9.18148">
        <ele>31.860717773438</ele>
        <time>2015-06-21T07:08:36Z</time>
      </trkpt>
      <trkpt lat="41.36825" lon="9.18148">
        <ele>30.418823242188</ele>
        <time>2015-06-21T07:08:45Z</time>
      </trkpt>
      <trkpt lat="41.36807" lon="9.18155">
        <ele>28.496215820312</ele>
        <time>2015-06-21T07:09:05Z</time>
      </trkpt>
      <trkpt lat="41.36794" lon="9.18162">
        <ele>25.131713867188</ele>
        <time>2015-06-21T07:09:22Z</time>
      </trkpt>
      <trkpt lat="41.36786" lon="9.18167">
        <ele>24.170288085938</ele>
        <time>2015-06-21T07:09:35Z</time>
      </trkpt>
      <trkpt lat="41.36772" lon="9.18174">
        <ele>21.766967773438</ele>
        <time>2015-06-21T07:09:52Z</time>
      </trkpt>
      <trkpt lat="41.36761" lon="9.18183">
        <ele>20.324951171875</ele>
        <time>2015-06-21T07:10:06Z</time>
      </trkpt>
      <trkpt lat="41.36749" lon="9.1819">
        <ele>17.441162109375</ele>
        <time>2015-06-21T07:10:19Z</time>
      </trkpt>
      <trkpt lat="41.36744" lon="9.18194">
        <ele>16.479736328125</ele>
        <time>2015-06-21T07:10:26Z</time>
      </trkpt>
      <trkpt lat="41.36742" lon="9.18195">
        <ele>16.479736328125</ele>
        <time>2015-06-21T07:10:28Z</time>
      </trkpt>
      <trkpt lat="41.36729" lon="9.18203">
        <ele>14.557006835938</ele>
        <time>2015-06-21T07:10:45Z</time>
      </trkpt>
      <trkpt lat="41.36718" lon="9.18206">
        <ele>12.15380859375</ele>
        <time>2015-06-21T07:11:03Z</time>
      </trkpt>
      <trkpt lat="41.36707" lon="9.18206">
        <ele>9.2698974609375</ele>
        <time>2015-06-21T07:11:14Z</time>
      </trkpt>
      <trkpt lat="41.36696" lon="9.18206">
        <ele>8.30859375</ele>
        <time>2015-06-21T07:11:30Z</time>
      </trkpt>
      <trkpt lat="41.36686" lon="9.18206">
        <ele>5.424560546875</ele>
        <time>2015-06-21T07:11:47Z</time>
      </trkpt>
      <trkpt lat="41.36682" lon="9.18211">
        <ele>3.501953125</ele>
        <time>2015-06-21T07:12:03Z</time>
      </trkpt>
      <trkpt lat="41.3668" lon="9.18213">
        <ele>3.501953125</ele>
        <time>2015-06-21T07:12:06Z</time>
      </trkpt>
      <trkpt lat="41.36674" lon="9.18217">
        <ele>2.5406494140625</ele>
        <time>2015-06-21T07:12:21Z</time>
      </trkpt>
      <trkpt lat="41.36669" lon="9.18217">
        <ele>3.021240234375</ele>
        <time>2015-06-21T07:12:31Z</time>
      </trkpt>
      <trkpt lat="41.36666" lon="9.18218">
        <ele>3.021240234375</ele>
        <time>2015-06-21T07:12:47Z</time>
      </trkpt>
      <trkpt lat="41.36674" lon="9.1822">
        <ele>3.501953125</ele>
        <time>2015-06-21T07:13:03Z</time>
      </trkpt>
      <trkpt lat="41.36672" lon="9.18238">
        <ele>3.982666015625</ele>
        <time>2015-06-21T07:13:21Z</time>
      </trkpt>
      <trkpt lat="41.3667" lon="9.18255">
        <ele>3.501953125</ele>
        <time>2015-06-21T07:13:39Z</time>
      </trkpt>
      <trkpt lat="41.3667" lon="9.18262">
        <ele>3.982666015625</ele>
        <time>2015-06-21T07:13:52Z</time>
      </trkpt>
      <trkpt lat="41.36669" lon="9.18263">
        <ele>3.021240234375</ele>
        <time>2015-06-21T07:14:06Z</time>
      </trkpt>
      <trkpt lat="41.36669" lon="9.18261">
        <ele>3.021240234375</ele>
        <time>2015-06-21T07:14:51Z</time>
      </trkpt>
      <trkpt lat="41.36673" lon="9.18271">
        <ele>4.4632568359375</ele>
        <time>2015-06-21T07:36:00Z</time>
      </trkpt>
      <trkpt lat="41.36677" lon="9.18277">
        <ele>3.982666015625</ele>
        <time>2015-06-21T07:36:16Z</time>
      </trkpt>
      <trkpt lat="41.36677" lon="9.18278">
        <ele>3.501953125</ele>
        <time>2015-06-21T07:49:13Z</time>
      </trkpt>
      <trkpt lat="41.36677" lon="9.18278">
        <ele>3.982666015625</ele>
        <time>2015-06-21T07:50:45Z</time>
      </trkpt>
      <trkpt lat="41.36674" lon="9.18279">
        <ele>3.021240234375</ele>
        <time>2015-06-21T07:51:22Z</time>
      </trkpt>
      <trkpt lat="41.36677" lon="9.18277">
        <ele>4.94384765625</ele>
        <time>2015-06-21T07:52:06Z</time>
      </trkpt>
      <trkpt lat="41.36677" lon="9.18278">
        <ele>4.4632568359375</ele>
        <time>2015-06-21T07:53:08Z</time>
      </trkpt>
      <trkpt lat="41.36678" lon="9.18277">
        <ele>3.982666015625</ele>
        <time>2015-06-21T07:54:32Z</time>
      </trkpt>
      <trkpt lat="41.36678" lon="9.18277">
        <ele>3.982666015625</ele>
        <time>2015-06-21T07:55:06Z</time>
      </trkpt>
      <trkpt lat="41.36678" lon="9.18278">
        <ele>4.4632568359375</ele>
        <time>2015-06-21T07:56:44Z</time>
      </trkpt>
      <trkpt lat="41.36677" lon="9.18277">
        <ele>3.982666015625</ele>
        <time>2015-06-21T07:57:13Z</time>
      </trkpt>
      <trkpt lat="41.36677" lon="9.18277">
        <ele>3.982666015625</ele>
        <time>2015-06-21T07:57:39Z</time>
      </trkpt>
      <trkpt lat="41.36677" lon="9.18278">
        <ele>4.4632568359375</ele>
        <time>2015-06-21T07:58:11Z</time>
      </trkpt>
      <trkpt lat="41.36676" lon="9.18278">
        <ele>3.982666015625</ele>
        <time>2015-06-21T07:58:35Z</time>
      </trkpt>
      <trkpt lat="41.36677" lon="9.18277">
        <ele>4.4632568359375</ele>
        <time>2015-06-21T07:59:03Z</time>
      </trkpt>
      <trkpt lat="41.36677" lon="9.18277">
        <ele>3.982666015625</ele>
        <time>2015-06-21T07:59:24Z</time>
      </trkpt>
      <trkpt lat="41.36678" lon="9.18278">
        <ele>4.4632568359375</ele>
        <time>2015-06-21T07:59:51Z</time>
      </trkpt>
      <trkpt lat="41.36678" lon="9.18277">
        <ele>4.4632568359375</ele>
        <time>2015-06-21T08:00:26Z</time>
      </trkpt>
      <trkpt lat="41.36678" lon="9.18278">
        <ele>4.4632568359375</ele>
        <time>2015-06-21T08:00:50Z</time>
      </trkpt>
      <trkpt lat="41.36678" lon="9.18278">
        <ele>3.501953125</ele>
        <time>2015-06-21T08:01:14Z</time>
      </trkpt>
      <trkpt lat="41.36679" lon="9.18278">
        <ele>4.4632568359375</ele>
        <time>2015-06-21T08:01:38Z</time>
      </trkpt>
      <trkpt lat="41.36679" lon="9.18276">
        <ele>3.982666015625</ele>
        <time>2015-06-21T08:02:14Z</time>
      </trkpt>
      <trkpt lat="41.36678" lon="9.18277">
        <ele>4.4632568359375</ele>
        <time>2015-06-21T08:02:48Z</time>
      </trkpt>
      <trkpt lat="41.36677" lon="9.18277">
        <ele>3.982666015625</ele>
        <time>2015-06-21T08:03:33Z</time>
      </trkpt>
      <trkpt lat="41.36678" lon="9.18278">
        <ele>4.4632568359375</ele>
        <time>2015-06-21T08:04:04Z</time>
      </trkpt>
      <trkpt lat="41.36677" lon="9.18278">
        <ele>4.4632568359375</ele>
        <time>2015-06-21T08:05:18Z</time>
      </trkpt>
      <trkpt lat="41.36678" lon="9.18278">
        <ele>4.4632568359375</ele>
        <time>2015-06-21T08:05:43Z</time>
      </trkpt>
      <trkpt lat="41.36677" lon="9.18279">
        <ele>4.4632568359375</ele>
        <time>2015-06-21T08:06:15Z</time>
      </trkpt>
      <trkpt lat="41.36677" lon="9.18279">
        <ele>4.4632568359375</ele>
        <time>2015-06-21T08:06:37Z</time>
      </trkpt>
      <trkpt lat="41.36679" lon="9.18278">
        <ele>4.4632568359375</ele>
        <time>2015-06-21T08:07:04Z</time>
      </trkpt>
      <trkpt lat="41.36679" lon="9.18279">
        <ele>4.94384765625</ele>
        <time>2015-06-21T08:07:32Z</time>
      </trkpt>
      <trkpt lat="41.36678" lon="9.18279">
        <ele>4.94384765625</ele>
        <time>2015-06-21T08:08:00Z</time>
      </trkpt>
      <trkpt lat="41.36679" lon="9.18279">
        <ele>4.4632568359375</ele>
        <time>2015-06-21T08:08:20Z</time>
      </trkpt>
      <trkpt lat="41.36679" lon="9.18279">
        <ele>4.4632568359375</ele>
        <time>2015-06-21T08:08:44Z</time>
      </trkpt>
      <trkpt lat="41.36678" lon="9.18279">
        <ele>3.982666015625</ele>
        <time>2015-06-21T08:09:07Z</time>
      </trkpt>
      <trkpt lat="41.36679" lon="9.18279">
        <ele>4.4632568359375</ele>
        <time>2015-06-21T08:09:28Z</time>
      </trkpt>
      <trkpt lat="41.36679" lon="9.18279">
        <ele>4.94384765625</ele>
        <time>2015-06-21T08:09:48Z</time>
      </trkpt>
      <trkpt lat="41.36679" lon="9.18279">
        <ele>4.94384765625</ele>
        <time>2015-06-21T08:10:11Z</time>
      </trkpt>
      <trkpt lat="41.36678" lon="9.18279">
        <ele>5.424560546875</ele>
        <time>2015-06-21T08:10:35Z</time>
      </trkpt>
      <trkpt lat="41.36678" lon="9.18279">
        <ele>4.94384765625</ele>
        <time>2015-06-21T08:10:59Z</time>
      </trkpt>
      <trkpt lat="41.3668" lon="9.18278">
        <ele>4.94384765625</ele>
        <time>2015-06-21T08:11:36Z</time>
      </trkpt>
      <trkpt lat="41.3668" lon="9.18279">
        <ele>4.4632568359375</ele>
        <time>2015-06-21T08:12:04Z</time>
      </trkpt>
      <trkpt lat="41.36681" lon="9.18278">
        <ele>3.982666015625</ele>
        <time>2015-06-21T08:12:24Z</time>
      </trkpt>
      <trkpt lat="41.36674" lon="9.18276">
        <ele>4.4632568359375</ele>
        <time>2015-06-21T08:16:59Z</time>
      </trkpt>
      <trkpt lat="41.36679" lon="9.18279">
        <ele>3.501953125</ele>
        <time>2015-06-21T08:17:40Z</time>
      </trkpt>
      <trkpt lat="41.36677" lon="9.18277">
        <ele>4.4632568359375</ele>
        <time>2015-06-21T08:19:00Z</time>
      </trkpt>
      <trkpt lat="41.36675" lon="9.18276">
        <ele>4.4632568359375</ele>
        <time>2015-06-21T08:19:30Z</time>
      </trkpt>
      <trkpt lat="41.36675" lon="9.18276">
        <ele>4.4632568359375</ele>
        <time>2015-06-21T08:19:46Z</time>
      </trkpt>
      <trkpt lat="41.36676" lon="9.18277">
        <ele>3.982666015625</ele>
        <time>2015-06-21T08:20:15Z</time>
      </trkpt>
      <trkpt lat="41.36681" lon="9.1828">
        <ele>5.424560546875</ele>
        <time>2015-06-21T08:20:33Z</time>
      </trkpt>
      <trkpt lat="41.36682" lon="9.1828">
        <ele>5.424560546875</ele>
        <time>2015-06-21T08:20:48Z</time>
      </trkpt>
      <trkpt lat="41.36679" lon="9.1828">
        <ele>4.94384765625</ele>
        <time>2015-06-21T08:21:04Z</time>
      </trkpt>
      <trkpt lat="41.36678" lon="9.18279">
        <ele>4.94384765625</ele>
        <time>2015-06-21T08:21:29Z</time>
      </trkpt>
      <trkpt lat="41.3668" lon="9.18278">
        <ele>4.94384765625</ele>
        <time>2015-06-21T08:21:53Z</time>
      </trkpt>
      <trkpt lat="41.36679" lon="9.18278">
        <ele>4.4632568359375</ele>
        <time>2015-06-21T08:22:32Z</time>
      </trkpt>
      <trkpt lat="41.36679" lon="9.18278">
        <ele>5.424560546875</ele>
        <time>2015-06-21T08:23:19Z</time>
      </trkpt>
      <trkpt lat="41.36678" lon="9.18278">
        <ele>5.424560546875</ele>
        <time>2015-06-21T08:24:06Z</time>
      </trkpt>
      <trkpt lat="41.36675" lon="9.18277">
        <ele>4.94384765625</ele>
        <time>2015-06-21T08:25:01Z</time>
      </trkpt>
      <trkpt lat="41.36682" lon="9.18279">
        <ele>4.94384765625</ele>
        <time>2015-06-21T08:25:30Z</time>
      </trkpt>
      <trkpt lat="41.36677" lon="9.18279">
        <ele>5.424560546875</ele>
        <time>2015-06-21T08:26:03Z</time>
      </trkpt>
      <trkpt lat="41.36679" lon="9.18281">
        <ele>5.424560546875</ele>
        <time>2015-06-21T08:26:50Z</time>
      </trkpt>
      <trkpt lat="41.36678" lon="9.18279">
        <ele>5.9052734375</ele>
        <time>2015-06-21T08:28:02Z</time>
      </trkpt>
      <trkpt lat="41.36678" lon="9.18279">
        <ele>5.424560546875</ele>
        <time>2015-06-21T08:28:32Z</time>
      </trkpt>
      <trkpt lat="41.36679" lon="9.18278">
        <ele>5.424560546875</ele>
        <time>2015-06-21T08:28:56Z</time>
      </trkpt>
      <trkpt lat="41.36678" lon="9.18278">
        <ele>5.9052734375</ele>
        <time>2015-06-21T08:29:18Z</time>
      </trkpt>
      <trkpt lat="41.36676" lon="9.18279">
        <ele>5.424560546875</ele>
        <time>2015-06-21T08:29:59Z</time>
      </trkpt>
      <trkpt lat="41.36676" lon="9.18279">
        <ele>5.424560546875</ele>
        <time>2015-06-21T08:30:36Z</time>
      </trkpt>
      <trkpt lat="41.36677" lon="9.18279">
        <ele>4.94384765625</ele>
        <time>2015-06-21T08:31:12Z</time>
      </trkpt>
      <trkpt lat="41.36676" lon="9.1828">
        <ele>4.94384765625</ele>
        <time>2015-06-21T08:31:42Z</time>
      </trkpt>
      <trkpt lat="41.36677" lon="9.18279">
        <ele>4.94384765625</ele>
        <time>2015-06-21T08:32:10Z</time>
      </trkpt>
      <trkpt lat="41.36676" lon="9.18279">
        <ele>5.424560546875</ele>
        <time>2015-06-21T08:32:50Z</time>
      </trkpt>
      <trkpt lat="41.36676" lon="9.18279">
        <ele>4.94384765625</ele>
        <time>2015-06-21T08:34:56Z</time>
      </trkpt>
      <trkpt lat="41.36676" lon="9.18279">
        <ele>4.94384765625</ele>
        <time>2015-06-21T08:35:35Z</time>
      </trkpt>
      <trkpt lat="41.36676" lon="9.18278">
        <ele>4.94384765625</ele>
        <time>2015-06-21T08:36:09Z</time>
      </trkpt>
      <trkpt lat="41.36676" lon="9.18279">
        <ele>4.94384765625</ele>
        <time>2015-06-21T08:36:38Z</time>
      </trkpt>
      <trkpt lat="41.36677" lon="9.18278">
        <ele>4.94384765625</ele>
        <time>2015-06-21T08:37:00Z</time>
      </trkpt>
      <trkpt lat="41.36676" lon="9.18278">
        <ele>4.4632568359375</ele>
        <time>2015-06-21T08:37:55Z</time>
      </trkpt>
      <trkpt lat="41.36675" lon="9.1828">
        <ele>4.4632568359375</ele>
        <time>2015-06-21T08:38:26Z</time>
      </trkpt>
      <trkpt lat="41.36676" lon="9.18278">
        <ele>4.94384765625</ele>
        <time>2015-06-21T08:39:18Z</time>
      </trkpt>
      <trkpt lat="41.36677" lon="9.18278">
        <ele>5.424560546875</ele>
        <time>2015-06-21T08:39:41Z</time>
      </trkpt>
      <trkpt lat="41.36674" lon="9.18278">
        <ele>6.866455078125</ele>
        <time>2015-06-21T08:41:41Z</time>
      </trkpt>
      <trkpt lat="41.36675" lon="9.18275">
        <ele>7.827880859375</ele>
        <time>2015-06-21T08:42:02Z</time>
      </trkpt>
      <trkpt lat="41.36672" lon="9.18256">
        <ele>7.34716796875</ele>
        <time>2015-06-21T08:42:22Z</time>
      </trkpt>
      <trkpt lat="41.36677" lon="9.18234">
        <ele>7.827880859375</ele>
        <time>2015-06-21T08:42:44Z</time>
      </trkpt>
      <trkpt lat="41.36682" lon="9.18214">
        <ele>7.34716796875</ele>
        <time>2015-06-21T08:43:03Z</time>
      </trkpt>
      <trkpt lat="41.36688" lon="9.18202">
        <ele>7.827880859375</ele>
        <time>2015-06-21T08:43:20Z</time>
      </trkpt>
      <trkpt lat="41.36693" lon="9.1819">
        <ele>6.866455078125</ele>
        <time>2015-06-21T08:43:36Z</time>
      </trkpt>
      <trkpt lat="41.36693" lon="9.18188">
        <ele>6.866455078125</ele>
        <time>2015-06-21T08:44:00Z</time>
      </trkpt>
      <trkpt lat="41.36694" lon="9.18186">
        <ele>7.34716796875</ele>
        <time>2015-06-21T08:44:03Z</time>
      </trkpt>
      <trkpt lat="41.36704" lon="9.18167">
        <ele>9.7506103515625</ele>
        <time>2015-06-21T08:44:22Z</time>
      </trkpt>
      <trkpt lat="41.36709" lon="9.18153">
        <ele>10.231201171875</ele>
        <time>2015-06-21T08:44:37Z</time>
      </trkpt>
      <trkpt lat="41.36712" lon="9.18137">
        <ele>11.192504882812</ele>
        <time>2015-06-21T08:44:53Z</time>
      </trkpt>
      <trkpt lat="41.36719" lon="9.1811">
        <ele>10.231201171875</ele>
        <time>2015-06-21T08:45:15Z</time>
      </trkpt>
      <trkpt lat="41.36721" lon="9.18106">
        <ele>10.711791992188</ele>
        <time>2015-06-21T08:45:18Z</time>
      </trkpt>
      <trkpt lat="41.36719" lon="9.181">
        <ele>11.192504882812</ele>
        <time>2015-06-21T08:45:24Z</time>
      </trkpt>
      <trkpt lat="41.36709" lon="9.18083">
        <ele>13.595825195312</ele>
        <time>2015-06-21T08:45:43Z</time>
      </trkpt>
      <trkpt lat="41.36707" lon="9.18083">
        <ele>13.595825195312</ele>
        <time>2015-06-21T08:46:02Z</time>
      </trkpt>
      <trkpt lat="41.36715" lon="9.18068">
        <ele>13.595825195312</ele>
        <time>2015-06-21T08:47:49Z</time>
      </trkpt>
      <trkpt lat="41.3672" lon="9.18059">
        <ele>15.037719726562</ele>
        <time>2015-06-21T08:48:05Z</time>
      </trkpt>
      <trkpt lat="41.36718" lon="9.18047">
        <ele>15.037719726562</ele>
        <time>2015-06-21T08:48:19Z</time>
      </trkpt>
      <trkpt lat="41.36719" lon="9.18036">
        <ele>14.557006835938</ele>
        <time>2015-06-21T08:48:33Z</time>
      </trkpt>
      <trkpt lat="41.36723" lon="9.18027">
        <ele>15.037719726562</ele>
        <time>2015-06-21T08:48:47Z</time>
      </trkpt>
      <trkpt lat="41.3672" lon="9.18019">
        <ele>14.076416015625</ele>
        <time>2015-06-21T08:49:11Z</time>
      </trkpt>
      <trkpt lat="41.36722" lon="9.18012">
        <ele>14.076416015625</ele>
        <time>2015-06-21T08:49:19Z</time>
      </trkpt>
      <trkpt lat="41.36722" lon="9.18002">
        <ele>14.076416015625</ele>
        <time>2015-06-21T08:49:30Z</time>
      </trkpt>
      <trkpt lat="41.36722" lon="9.18009">
        <ele>15.518432617188</ele>
        <time>2015-06-21T08:49:48Z</time>
      </trkpt>
      <trkpt lat="41.36722" lon="9.18005">
        <ele>15.037719726562</ele>
        <time>2015-06-21T08:50:07Z</time>
      </trkpt>
      <trkpt lat="41.36722" lon="9.18">
        <ele>14.557006835938</ele>
        <time>2015-06-21T08:50:22Z</time>
      </trkpt>
      <trkpt lat="41.36725" lon="9.17991">
        <ele>13.115112304688</ele>
        <time>2015-06-21T08:50:35Z</time>
      </trkpt>
      <trkpt lat="41.36729" lon="9.1799">
        <ele>13.115112304688</ele>
        <time>2015-06-21T08:50:54Z</time>
      </trkpt>
      <trkpt lat="41.36728" lon="9.17991">
        <ele>13.115112304688</ele>
        <time>2015-06-21T08:51:45Z</time>
      </trkpt>
      <trkpt lat="41.3673" lon="9.17989">
        <ele>12.634399414062</ele>
        <time>2015-06-21T08:51:50Z</time>
      </trkpt>
      <trkpt lat="41.36742" lon="9.17981">
        <ele>14.076416015625</ele>
        <time>2015-06-21T08:52:06Z</time>
      </trkpt>
      <trkpt lat="41.36737" lon="9.17985">
        <ele>14.076416015625</ele>
        <time>2015-06-21T08:52:27Z</time>
      </trkpt>
      <trkpt lat="41.36734" lon="9.17986">
        <ele>13.595825195312</ele>
        <time>2015-06-21T08:52:39Z</time>
      </trkpt>
      <trkpt lat="41.36732" lon="9.17988">
        <ele>14.076416015625</ele>
        <time>2015-06-21T08:52:57Z</time>
      </trkpt>
      <trkpt lat="41.36732" lon="9.17988">
        <ele>12.634399414062</ele>
        <time>2015-06-21T08:53:38Z</time>
      </trkpt>
      <trkpt lat="41.3673" lon="9.17988">
        <ele>13.115112304688</ele>
        <time>2015-06-21T08:54:18Z</time>
      </trkpt>
      <trkpt lat="41.36723" lon="9.18004">
        <ele>14.557006835938</ele>
        <time>2015-06-21T08:54:35Z</time>
      </trkpt>
      <trkpt lat="41.36723" lon="9.1802">
        <ele>14.076416015625</ele>
        <time>2015-06-21T08:54:49Z</time>
      </trkpt>
      <trkpt lat="41.36726" lon="9.18038">
        <ele>14.076416015625</ele>
        <time>2015-06-21T08:55:03Z</time>
      </trkpt>
      <trkpt lat="41.36733" lon="9.18048">
        <ele>12.634399414062</ele>
        <time>2015-06-21T08:55:17Z</time>
      </trkpt>
      <trkpt lat="41.36744" lon="9.18069">
        <ele>15.518432617188</ele>
        <time>2015-06-21T08:55:35Z</time>
      </trkpt>
      <trkpt lat="41.36746" lon="9.18089">
        <ele>13.115112304688</ele>
        <time>2015-06-21T08:55:52Z</time>
      </trkpt>
      <trkpt lat="41.36748" lon="9.18105">
        <ele>15.518432617188</ele>
        <time>2015-06-21T08:56:06Z</time>
      </trkpt>
      <trkpt lat="41.36748" lon="9.18117">
        <ele>16.479736328125</ele>
        <time>2015-06-21T08:56:22Z</time>
      </trkpt>
      <trkpt lat="41.36751" lon="9.18137">
        <ele>17.441162109375</ele>
        <time>2015-06-21T08:56:38Z</time>
      </trkpt>
      <trkpt lat="41.36755" lon="9.18143">
        <ele>16.96044921875</ele>
        <time>2015-06-21T08:56:55Z</time>
      </trkpt>
      <trkpt lat="41.36753" lon="9.18158">
        <ele>16.479736328125</ele>
        <time>2015-06-21T08:57:12Z</time>
      </trkpt>
      <trkpt lat="41.36757" lon="9.18172">
        <ele>17.441162109375</ele>
        <time>2015-06-21T08:57:28Z</time>
      </trkpt>
      <trkpt lat="41.36765" lon="9.18181">
        <ele>20.8056640625</ele>
        <time>2015-06-21T08:57:44Z</time>
      </trkpt>
      <trkpt lat="41.36768" lon="9.1818">
        <ele>20.8056640625</ele>
        <time>2015-06-21T08:58:14Z</time>
      </trkpt>
      <trkpt lat="41.36778" lon="9.18172">
        <ele>21.766967773438</ele>
        <time>2015-06-21T08:58:33Z</time>
      </trkpt>
      <trkpt lat="41.36789" lon="9.18168">
        <ele>23.208984375</ele>
        <time>2015-06-21T08:58:48Z</time>
      </trkpt>
      <trkpt lat="41.36796" lon="9.18162">
        <ele>26.092895507812</ele>
        <time>2015-06-21T08:59:01Z</time>
      </trkpt>
      <trkpt lat="41.36809" lon="9.18156">
        <ele>28.015502929688</ele>
        <time>2015-06-21T08:59:18Z</time>
      </trkpt>
      <trkpt lat="41.36822" lon="9.1815">
        <ele>29.938110351562</ele>
        <time>2015-06-21T08:59:34Z</time>
      </trkpt>
      <trkpt lat="41.36825" lon="9.1815">
        <ele>30.418823242188</ele>
        <time>2015-06-21T08:59:37Z</time>
      </trkpt>
      <trkpt lat="41.3684" lon="9.18151">
        <ele>32.341552734375</ele>
        <time>2015-06-21T08:59:56Z</time>
      </trkpt>
      <trkpt lat="41.36847" lon="9.18153">
        <ele>32.822265625</ele>
        <time>2015-06-21T09:00:10Z</time>
      </trkpt>
      <trkpt lat="41.36859" lon="9.18155">
        <ele>35.225463867188</ele>
        <time>2015-06-21T09:00:26Z</time>
      </trkpt>
      <trkpt lat="41.36878" lon="9.18152">
        <ele>37.628662109375</ele>
        <time>2015-06-21T09:00:47Z</time>
      </trkpt>
      <trkpt lat="41.3689" lon="9.18151">
        <ele>40.993408203125</ele>
        <time>2015-06-21T09:01:02Z</time>
      </trkpt>
      <trkpt lat="41.36899" lon="9.18145">
        <ele>43.877319335938</ele>
        <time>2015-06-21T09:01:18Z</time>
      </trkpt>
      <trkpt lat="41.3691" lon="9.18143">
        <ele>47.241821289062</ele>
        <time>2015-06-21T09:01:35Z</time>
      </trkpt>
      <trkpt lat="41.36918" lon="9.18142">
        <ele>49.16455078125</ele>
        <time>2015-06-21T09:01:50Z</time>
      </trkpt>
      <trkpt lat="41.36922" lon="9.18142">
        <ele>50.606567382812</ele>
        <time>2015-06-21T09:02:01Z</time>
      </trkpt>
      <trkpt lat="41.36928" lon="9.18136">
        <ele>52.529174804688</ele>
        <time>2015-06-21T09:02:14Z</time>
      </trkpt>
      <trkpt lat="41.36941" lon="9.18135">
        <ele>53.490478515625</ele>
        <time>2015-06-21T09:02:32Z</time>
      </trkpt>
      <trkpt lat="41.36945" lon="9.18133">
        <ele>56.37451171875</ele>
        <time>2015-06-21T09:02:44Z</time>
      </trkpt>
      <trkpt lat="41.36949" lon="9.18132">
        <ele>57.816528320312</ele>
        <time>2015-06-21T09:03:02Z</time>
      </trkpt>
      <trkpt lat="41.36957" lon="9.1813">
        <ele>59.258422851562</ele>
        <time>2015-06-21T09:03:19Z</time>
      </trkpt>
      <trkpt lat="41.36964" lon="9.18128">
        <ele>59.739135742188</ele>
        <time>2015-06-21T09:03:33Z</time>
      </trkpt>
      <trkpt lat="41.36972" lon="9.18122">
        <ele>62.622924804688</ele>
        <time>2015-06-21T09:03:51Z</time>
      </trkpt>
      <trkpt lat="41.3698" lon="9.18118">
        <ele>64.545654296875</ele>
        <time>2015-06-21T09:04:07Z</time>
      </trkpt>
      <trkpt lat="41.36987" lon="9.18116">
        <ele>65.987670898438</ele>
        <time>2015-06-21T09:04:22Z</time>
      </trkpt>
      <trkpt lat="41.36995" lon="9.18115">
        <ele>69.352294921875</ele>
        <time>2015-06-21T09:04:35Z</time>
      </trkpt>
      <trkpt lat="41.37004" lon="9.18113">
        <ele>71.27490234375</ele>
        <time>2015-06-21T09:04:49Z</time>
      </trkpt>
      <trkpt lat="41.37013" lon="9.18117">
        <ele>72.236206054688</ele>
        <time>2015-06-21T09:05:03Z</time>
      </trkpt>
      <trkpt lat="41.37009" lon="9.1814">
        <ele>75.120239257812</ele>
        <time>2015-06-21T09:05:20Z</time>
      </trkpt>
      <trkpt lat="41.37014" lon="9.18155">
        <ele>78.004028320312</ele>
        <time>2015-06-21T09:05:37Z</time>
      </trkpt>
      <trkpt lat="41.37018" lon="9.18151">
        <ele>78.484741210938</ele>
        <time>2015-06-21T09:05:41Z</time>
      </trkpt>
      <trkpt lat="41.37037" lon="9.18131">
        <ele>78.484741210938</ele>
        <time>2015-06-21T09:06:06Z</time>
      </trkpt>
      <trkpt lat="41.37045" lon="9.18125">
        <ele>76.562133789062</ele>
        <time>2015-06-21T09:06:21Z</time>
      </trkpt>
      <trkpt lat="41.37059" lon="9.18122">
        <ele>73.67822265625</ele>
        <time>2015-06-21T09:06:40Z</time>
      </trkpt>
      <trkpt lat="41.37064" lon="9.18119">
        <ele>73.197631835938</ele>
        <time>2015-06-21T09:06:58Z</time>
      </trkpt>
      <trkpt lat="41.37074" lon="9.18115">
        <ele>71.755493164062</ele>
        <time>2015-06-21T09:07:14Z</time>
      </trkpt>
      <trkpt lat="41.37088" lon="9.18107">
        <ele>71.27490234375</ele>
        <time>2015-06-21T09:07:31Z</time>
      </trkpt>
      <trkpt lat="41.37108" lon="9.18109">
        <ele>72.236206054688</ele>
        <time>2015-06-21T09:07:48Z</time>
      </trkpt>
      <trkpt lat="41.37111" lon="9.1811">
        <ele>72.716918945312</ele>
        <time>2015-06-21T09:07:51Z</time>
      </trkpt>
      <trkpt lat="41.37124" lon="9.18114">
        <ele>75.600830078125</ele>
        <time>2015-06-21T09:08:08Z</time>
      </trkpt>
      <trkpt lat="41.37135" lon="9.18115">
        <ele>77.042846679688</ele>
        <time>2015-06-21T09:08:24Z</time>
      </trkpt>
      <trkpt lat="41.37143" lon="9.18114">
        <ele>79.926635742188</ele>
        <time>2015-06-21T09:08:39Z</time>
      </trkpt>
      <trkpt lat="41.3715" lon="9.18115">
        <ele>82.330078125</ele>
        <time>2015-06-21T09:08:50Z</time>
      </trkpt>
      <trkpt lat="41.3716" lon="9.18115">
        <ele>85.213989257812</ele>
        <time>2015-06-21T09:09:04Z</time>
      </trkpt>
      <trkpt lat="41.37171" lon="9.18119">
        <ele>88.098022460938</ele>
        <time>2015-06-21T09:09:19Z</time>
      </trkpt>
      <trkpt lat="41.37187" lon="9.18121">
        <ele>88.098022460938</ele>
        <time>2015-06-21T09:09:38Z</time>
      </trkpt>
      <trkpt lat="41.37195" lon="9.18117">
        <ele>86.656005859375</ele>
        <time>2015-06-21T09:09:54Z</time>
      </trkpt>
      <trkpt lat="41.372" lon="9.1811">
        <ele>85.213989257812</ele>
        <time>2015-06-21T09:10:12Z</time>
      </trkpt>
      <trkpt lat="41.37203" lon="9.18108">
        <ele>83.291381835938</ele>
        <time>2015-06-21T09:10:16Z</time>
      </trkpt>
      <trkpt lat="41.37211" lon="9.18106">
        <ele>80.88818359375</ele>
        <time>2015-06-21T09:10:32Z</time>
      </trkpt>
      <trkpt lat="41.37217" lon="9.18111">
        <ele>79.926635742188</ele>
        <time>2015-06-21T09:10:38Z</time>
      </trkpt>
      <trkpt lat="41.37221" lon="9.18116">
        <ele>79.926635742188</ele>
        <time>2015-06-21T09:10:43Z</time>
      </trkpt>
      <trkpt lat="41.37246" lon="9.18114">
        <ele>80.88818359375</ele>
        <time>2015-06-21T09:11:05Z</time>
      </trkpt>
      <trkpt lat="41.37256" lon="9.18093">
        <ele>83.77197265625</ele>
        <time>2015-06-21T09:11:21Z</time>
      </trkpt>
      <trkpt lat="41.37266" lon="9.1807">
        <ele>87.136596679688</ele>
        <time>2015-06-21T09:11:38Z</time>
      </trkpt>
      <trkpt lat="41.37277" lon="9.18043">
        <ele>89.059326171875</ele>
        <time>2015-06-21T09:11:58Z</time>
      </trkpt>
      <trkpt lat="41.37287" lon="9.1802">
        <ele>91.462524414062</ele>
        <time>2015-06-21T09:12:16Z</time>
      </trkpt>
      <trkpt lat="41.373" lon="9.17997">
        <ele>94.346557617188</ele>
        <time>2015-06-21T09:12:36Z</time>
      </trkpt>
      <trkpt lat="41.37317" lon="9.17976">
        <ele>97.711181640625</ele>
        <time>2015-06-21T09:12:57Z</time>
      </trkpt>
      <trkpt lat="41.37325" lon="9.17965">
        <ele>100.59509277344</ele>
        <time>2015-06-21T09:13:08Z</time>
      </trkpt>
      <trkpt lat="41.3734" lon="9.17946">
        <ele>103.95971679688</ele>
        <time>2015-06-21T09:13:28Z</time>
      </trkpt>
      <trkpt lat="41.37341" lon="9.17945">
        <ele>102.99829101562</ele>
        <time>2015-06-21T09:13:29Z</time>
      </trkpt>
      <trkpt lat="41.37371" lon="9.17938">
        <ele>103.95971679688</ele>
        <time>2015-06-21T09:13:56Z</time>
      </trkpt>
      <trkpt lat="41.37401" lon="9.17926">
        <ele>103.95971679688</ele>
        <time>2015-06-21T09:14:22Z</time>
      </trkpt>
      <trkpt lat="41.37427" lon="9.17909">
        <ele>102.99829101562</ele>
        <time>2015-06-21T09:14:45Z</time>
      </trkpt>
      <trkpt lat="41.37453" lon="9.17893">
        <ele>104.92102050781</ele>
        <time>2015-06-21T09:15:08Z</time>
      </trkpt>
      <trkpt lat="41.37479" lon="9.17868">
        <ele>106.36303710938</ele>
        <time>2015-06-21T09:15:33Z</time>
      </trkpt>
      <trkpt lat="41.37512" lon="9.17838">
        <ele>105.88244628906</ele>
        <time>2015-06-21T09:16:04Z</time>
      </trkpt>
      <trkpt lat="41.3754" lon="9.17816">
        <ele>103.47900390625</ele>
        <time>2015-06-21T09:16:31Z</time>
      </trkpt>
      <trkpt lat="41.37562" lon="9.17798">
        <ele>101.07568359375</ele>
        <time>2015-06-21T09:16:54Z</time>
      </trkpt>
      <trkpt lat="41.37588" lon="9.17774">
        <ele>100.59509277344</ele>
        <time>2015-06-21T09:17:20Z</time>
      </trkpt>
      <trkpt lat="41.3761" lon="9.17767">
        <ele>100.59509277344</ele>
        <time>2015-06-21T09:17:41Z</time>
      </trkpt>
      <trkpt lat="41.37617" lon="9.17738">
        <ele>100.11450195312</ele>
        <time>2015-06-21T09:18:01Z</time>
      </trkpt>
      <trkpt lat="41.37615" lon="9.17709">
        <ele>99.6337890625</ele>
        <time>2015-06-21T09:18:20Z</time>
      </trkpt>
      <trkpt lat="41.37609" lon="9.17685">
        <ele>98.672485351562</ele>
        <time>2015-06-21T09:18:38Z</time>
      </trkpt>
      <trkpt lat="41.3763" lon="9.17667">
        <ele>97.711181640625</ele>
        <time>2015-06-21T09:18:59Z</time>
      </trkpt>
      <trkpt lat="41.37645" lon="9.1765">
        <ele>96.749877929688</ele>
        <time>2015-06-21T09:19:19Z</time>
      </trkpt>
      <trkpt lat="41.37647" lon="9.1765">
        <ele>96.749877929688</ele>
        <time>2015-06-21T09:19:52Z</time>
      </trkpt>
      <trkpt lat="41.37656" lon="9.17645">
        <ele>94.346557617188</ele>
        <time>2015-06-21T09:20:07Z</time>
      </trkpt>
      <trkpt lat="41.37658" lon="9.17635">
        <ele>93.865844726562</ele>
        <time>2015-06-21T09:20:21Z</time>
      </trkpt>
      <trkpt lat="41.37664" lon="9.17626">
        <ele>92.423950195312</ele>
        <time>2015-06-21T09:20:37Z</time>
      </trkpt>
      <trkpt lat="41.37676" lon="9.17619">
        <ele>92.423950195312</ele>
        <time>2015-06-21T09:20:55Z</time>
      </trkpt>
      <trkpt lat="41.37678" lon="9.17611">
        <ele>90.501342773438</ele>
        <time>2015-06-21T09:21:13Z</time>
      </trkpt>
      <trkpt lat="41.3768" lon="9.176">
        <ele>89.539916992188</ele>
        <time>2015-06-21T09:21:30Z</time>
      </trkpt>
      <trkpt lat="41.3768" lon="9.17593">
        <ele>88.578735351562</ele>
        <time>2015-06-21T09:21:46Z</time>
      </trkpt>
      <trkpt lat="41.37682" lon="9.17589">
        <ele>87.6171875</ele>
        <time>2015-06-21T09:22:00Z</time>
      </trkpt>
      <trkpt lat="41.3768" lon="9.17585">
        <ele>88.098022460938</ele>
        <time>2015-06-21T09:22:04Z</time>
      </trkpt>
      <trkpt lat="41.37676" lon="9.17583">
        <ele>88.578735351562</ele>
        <time>2015-06-21T09:22:18Z</time>
      </trkpt>
      <trkpt lat="41.37683" lon="9.17574">
        <ele>88.098022460938</ele>
        <time>2015-06-21T09:22:32Z</time>
      </trkpt>
      <trkpt lat="41.37681" lon="9.17563">
        <ele>87.136596679688</ele>
        <time>2015-06-21T09:22:47Z</time>
      </trkpt>
      <trkpt lat="41.37692" lon="9.17553">
        <ele>87.136596679688</ele>
        <time>2015-06-21T09:23:03Z</time>
      </trkpt>
      <trkpt lat="41.37695" lon="9.17554">
        <ele>87.6171875</ele>
        <time>2015-06-21T09:23:09Z</time>
      </trkpt>
      <trkpt lat="41.37713" lon="9.17536">
        <ele>88.098022460938</ele>
        <time>2015-06-21T09:23:31Z</time>
      </trkpt>
      <trkpt lat="41.37715" lon="9.17536">
        <ele>88.098022460938</ele>
        <time>2015-06-21T09:23:40Z</time>
      </trkpt>
      <trkpt lat="41.37715" lon="9.1754">
        <ele>86.17529296875</ele>
        <time>2015-06-21T09:23:43Z</time>
      </trkpt>
      <trkpt lat="41.3772" lon="9.17552">
        <ele>85.213989257812</ele>
        <time>2015-06-21T09:24:00Z</time>
      </trkpt>
      <trkpt lat="41.37718" lon="9.17561">
        <ele>84.7333984375</ele>
        <time>2015-06-21T09:24:10Z</time>
      </trkpt>
      <trkpt lat="41.37713" lon="9.17573">
        <ele>83.291381835938</ele>
        <time>2015-06-21T09:24:25Z</time>
      </trkpt>
      <trkpt lat="41.37705" lon="9.1758">
        <ele>83.77197265625</ele>
        <time>2015-06-21T09:24:39Z</time>
      </trkpt>
      <trkpt lat="41.37705" lon="9.1758">
        <ele>83.77197265625</ele>
        <time>2015-06-21T09:24:48Z</time>
      </trkpt>
      <trkpt lat="41.37701" lon="9.17588">
        <ele>83.291381835938</ele>
        <time>2015-06-21T09:25:01Z</time>
      </trkpt>
      <trkpt lat="41.37699" lon="9.176">
        <ele>84.7333984375</ele>
        <time>2015-06-21T09:25:17Z</time>
      </trkpt>
      <trkpt lat="41.37687" lon="9.17615">
        <ele>85.213989257812</ele>
        <time>2015-06-21T09:25:33Z</time>
      </trkpt>
      <trkpt lat="41.37698" lon="9.17634">
        <ele>83.77197265625</ele>
        <time>2015-06-21T09:25:50Z</time>
      </trkpt>
      <trkpt lat="41.37699" lon="9.17635">
        <ele>83.77197265625</ele>
        <time>2015-06-21T09:25:51Z</time>
      </trkpt>
      <trkpt lat="41.37714" lon="9.17646">
        <ele>82.810791015625</ele>
        <time>2015-06-21T09:26:09Z</time>
      </trkpt>
      <trkpt lat="41.37715" lon="9.17651">
        <ele>82.810791015625</ele>
        <time>2015-06-21T09:26:14Z</time>
      </trkpt>
      <trkpt lat="41.37715" lon="9.17685">
        <ele>80.88818359375</ele>
        <time>2015-06-21T09:26:38Z</time>
      </trkpt>
      <trkpt lat="41.37713" lon="9.17719">
        <ele>80.407470703125</ele>
        <time>2015-06-21T09:27:00Z</time>
      </trkpt>
      <trkpt lat="41.3772" lon="9.17757">
        <ele>78.965454101562</ele>
        <time>2015-06-21T09:27:23Z</time>
      </trkpt>
      <trkpt lat="41.37702" lon="9.17782">
        <ele>77.042846679688</ele>
        <time>2015-06-21T09:27:45Z</time>
      </trkpt>
      <trkpt lat="41.37699" lon="9.17786">
        <ele>77.042846679688</ele>
        <time>2015-06-21T09:27:48Z</time>
      </trkpt>
      <trkpt lat="41.37701" lon="9.17793">
        <ele>76.562133789062</ele>
        <time>2015-06-21T09:27:52Z</time>
      </trkpt>
      <trkpt lat="41.37729" lon="9.17816">
        <ele>76.081420898438</ele>
        <time>2015-06-21T09:28:17Z</time>
      </trkpt>
      <trkpt lat="41.37735" lon="9.17819">
        <ele>75.600830078125</ele>
        <time>2015-06-21T09:28:23Z</time>
      </trkpt>
      <trkpt lat="41.37764" lon="9.17825">
        <ele>75.120239257812</ele>
        <time>2015-06-21T09:28:46Z</time>
      </trkpt>
      <trkpt lat="41.37778" lon="9.17803">
        <ele>76.562133789062</ele>
        <time>2015-06-21T09:29:06Z</time>
      </trkpt>
      <trkpt lat="41.37779" lon="9.178">
        <ele>77.042846679688</ele>
        <time>2015-06-21T09:29:08Z</time>
      </trkpt>
      <trkpt lat="41.37798" lon="9.17783">
        <ele>79.926635742188</ele>
        <time>2015-06-21T09:29:26Z</time>
      </trkpt>
      <trkpt lat="41.3783" lon="9.17786">
        <ele>81.849365234375</ele>
        <time>2015-06-21T09:29:52Z</time>
      </trkpt>
      <trkpt lat="41.37857" lon="9.178">
        <ele>85.213989257812</ele>
        <time>2015-06-21T09:30:15Z</time>
      </trkpt>
      <trkpt lat="41.37875" lon="9.1781">
        <ele>88.578735351562</ele>
        <time>2015-06-21T09:30:31Z</time>
      </trkpt>
      <trkpt lat="41.37881" lon="9.17814">
        <ele>89.539916992188</ele>
        <time>2015-06-21T09:30:36Z</time>
      </trkpt>
      <trkpt lat="41.37902" lon="9.17829">
        <ele>90.501342773438</ele>
        <time>2015-06-21T09:30:55Z</time>
      </trkpt>
      <trkpt lat="41.37928" lon="9.17831">
        <ele>90.98193359375</ele>
        <time>2015-06-21T09:31:17Z</time>
      </trkpt>
      <trkpt lat="41.37938" lon="9.17813">
        <ele>93.865844726562</ele>
        <time>2015-06-21T09:31:30Z</time>
      </trkpt>
      <trkpt lat="41.37937" lon="9.17802">
        <ele>94.346557617188</ele>
        <time>2015-06-21T09:31:41Z</time>
      </trkpt>
      <trkpt lat="41.37937" lon="9.17796">
        <ele>94.346557617188</ele>
        <time>2015-06-21T09:31:45Z</time>
      </trkpt>
      <trkpt lat="41.37936" lon="9.17772">
        <ele>94.346557617188</ele>
        <time>2015-06-21T09:32:01Z</time>
      </trkpt>
      <trkpt lat="41.37938" lon="9.17758">
        <ele>94.346557617188</ele>
        <time>2015-06-21T09:32:16Z</time>
      </trkpt>
      <trkpt lat="41.37945" lon="9.17722">
        <ele>95.788452148438</ele>
        <time>2015-06-21T09:32:39Z</time>
      </trkpt>
      <trkpt lat="41.37955" lon="9.17685">
        <ele>95.307739257812</ele>
        <time>2015-06-21T09:33:03Z</time>
      </trkpt>
      <trkpt lat="41.37967" lon="9.17651">
        <ele>95.788452148438</ele>
        <time>2015-06-21T09:33:25Z</time>
      </trkpt>
      <trkpt lat="41.37977" lon="9.17613">
        <ele>95.788452148438</ele>
        <time>2015-06-21T09:33:48Z</time>
      </trkpt>
      <trkpt lat="41.37993" lon="9.17575">
        <ele>94.8271484375</ele>
        <time>2015-06-21T09:34:13Z</time>
      </trkpt>
      <trkpt lat="41.38007" lon="9.17539">
        <ele>93.865844726562</ele>
        <time>2015-06-21T09:34:37Z</time>
      </trkpt>
      <trkpt lat="41.38012" lon="9.17528">
        <ele>94.346557617188</ele>
        <time>2015-06-21T09:34:45Z</time>
      </trkpt>
      <trkpt lat="41.38007" lon="9.17513">
        <ele>94.8271484375</ele>
        <time>2015-06-21T09:34:56Z</time>
      </trkpt>
      <trkpt lat="41.38003" lon="9.17483">
        <ele>93.385131835938</ele>
        <time>2015-06-21T09:35:18Z</time>
      </trkpt>
      <trkpt lat="41.37999" lon="9.17457">
        <ele>94.8271484375</ele>
        <time>2015-06-21T09:35:37Z</time>
      </trkpt>
      <trkpt lat="41.37997" lon="9.17454">
        <ele>94.346557617188</ele>
        <time>2015-06-21T09:35:40Z</time>
      </trkpt>
      <trkpt lat="41.37996" lon="9.17452">
        <ele>94.8271484375</ele>
        <time>2015-06-21T09:35:42Z</time>
      </trkpt>
      <trkpt lat="41.37991" lon="9.17438">
        <ele>92.904541015625</ele>
        <time>2015-06-21T09:35:53Z</time>
      </trkpt>
      <trkpt lat="41.37984" lon="9.17422">
        <ele>92.904541015625</ele>
        <time>2015-06-21T09:36:09Z</time>
      </trkpt>
      <trkpt lat="41.37984" lon="9.17415">
        <ele>92.423950195312</ele>
        <time>2015-06-21T09:36:23Z</time>
      </trkpt>
      <trkpt lat="41.37985" lon="9.17415">
        <ele>91.462524414062</ele>
        <time>2015-06-21T09:37:02Z</time>
      </trkpt>
      <trkpt lat="41.37989" lon="9.17412">
        <ele>91.462524414062</ele>
        <time>2015-06-21T09:37:11Z</time>
      </trkpt>
      <trkpt lat="41.38002" lon="9.17412">
        <ele>92.423950195312</ele>
        <time>2015-06-21T09:37:28Z</time>
      </trkpt>
      <trkpt lat="41.38016" lon="9.174">
        <ele>92.904541015625</ele>
        <time>2015-06-21T09:37:43Z</time>
      </trkpt>
      <trkpt lat="41.38035" lon="9.17387">
        <ele>92.423950195312</ele>
        <time>2015-06-21T09:38:03Z</time>
      </trkpt>
      <trkpt lat="41.38037" lon="9.17379">
        <ele>92.904541015625</ele>
        <time>2015-06-21T09:38:13Z</time>
      </trkpt>
      <trkpt lat="41.38033" lon="9.17378">
        <ele>93.385131835938</ele>
        <time>2015-06-21T09:38:28Z</time>
      </trkpt>
      <trkpt lat="41.38036" lon="9.17378">
        <ele>92.904541015625</ele>
        <time>2015-06-21T09:38:49Z</time>
      </trkpt>
      <trkpt lat="41.38044" lon="9.17373">
        <ele>92.423950195312</ele>
        <time>2015-06-21T09:38:59Z</time>
      </trkpt>
      <trkpt lat="41.38053" lon="9.17372">
        <ele>92.904541015625</ele>
        <time>2015-06-21T09:39:09Z</time>
      </trkpt>
      <trkpt lat="41.38056" lon="9.17368">
        <ele>92.423950195312</ele>
        <time>2015-06-21T09:39:15Z</time>
      </trkpt>
      <trkpt lat="41.38065" lon="9.17356">
        <ele>91.462524414062</ele>
        <time>2015-06-21T09:39:29Z</time>
      </trkpt>
      <trkpt lat="41.38069" lon="9.17349">
        <ele>91.462524414062</ele>
        <time>2015-06-21T09:39:34Z</time>
      </trkpt>
      <trkpt lat="41.38076" lon="9.17347">
        <ele>90.98193359375</ele>
        <time>2015-06-21T09:39:41Z</time>
      </trkpt>
      <trkpt lat="41.38088" lon="9.17341">
        <ele>90.501342773438</ele>
        <time>2015-06-21T09:39:53Z</time>
      </trkpt>
      <trkpt lat="41.38096" lon="9.17331">
        <ele>89.059326171875</ele>
        <time>2015-06-21T09:40:04Z</time>
      </trkpt>
      <trkpt lat="41.38102" lon="9.17322">
        <ele>88.578735351562</ele>
        <time>2015-06-21T09:40:13Z</time>
      </trkpt>
      <trkpt lat="41.38113" lon="9.17313">
        <ele>87.6171875</ele>
        <time>2015-06-21T09:40:28Z</time>
      </trkpt>
      <trkpt lat="41.38118" lon="9.17302">
        <ele>87.6171875</ele>
        <time>2015-06-21T09:40:44Z</time>
      </trkpt>
      <trkpt lat="41.38118" lon="9.17304">
        <ele>87.136596679688</ele>
        <time>2015-06-21T09:40:50Z</time>
      </trkpt>
      <trkpt lat="41.38123" lon="9.1732">
        <ele>88.098022460938</ele>
        <time>2015-06-21T09:41:06Z</time>
      </trkpt>
      <trkpt lat="41.3814" lon="9.17305">
        <ele>87.136596679688</ele>
        <time>2015-06-21T09:41:25Z</time>
      </trkpt>
      <trkpt lat="41.38155" lon="9.173">
        <ele>85.694580078125</ele>
        <time>2015-06-21T09:41:42Z</time>
      </trkpt>
      <trkpt lat="41.38162" lon="9.17286">
        <ele>83.291381835938</ele>
        <time>2015-06-21T09:42:00Z</time>
      </trkpt>
      <trkpt lat="41.38169" lon="9.17268">
        <ele>83.291381835938</ele>
        <time>2015-06-21T09:42:18Z</time>
      </trkpt>
      <trkpt lat="41.38174" lon="9.17254">
        <ele>80.88818359375</ele>
        <time>2015-06-21T09:42:33Z</time>
      </trkpt>
      <trkpt lat="41.38177" lon="9.17255">
        <ele>80.407470703125</ele>
        <time>2015-06-21T09:43:02Z</time>
      </trkpt>
      <trkpt lat="41.38185" lon="9.17246">
        <ele>78.004028320312</ele>
        <time>2015-06-21T09:43:19Z</time>
      </trkpt>
      <trkpt lat="41.38192" lon="9.17238">
        <ele>76.562133789062</ele>
        <time>2015-06-21T09:43:34Z</time>
      </trkpt>
      <trkpt lat="41.38195" lon="9.17235">
        <ele>76.562133789062</ele>
        <time>2015-06-21T09:43:40Z</time>
      </trkpt>
      <trkpt lat="41.382" lon="9.17229">
        <ele>75.120239257812</ele>
        <time>2015-06-21T09:43:49Z</time>
      </trkpt>
      <trkpt lat="41.38211" lon="9.17217">
        <ele>72.716918945312</ele>
        <time>2015-06-21T09:44:07Z</time>
      </trkpt>
      <trkpt lat="41.38226" lon="9.17201">
        <ele>71.755493164062</ele>
        <time>2015-06-21T09:44:26Z</time>
      </trkpt>
      <trkpt lat="41.38226" lon="9.17196">
        <ele>71.27490234375</ele>
        <time>2015-06-21T09:44:43Z</time>
      </trkpt>
      <trkpt lat="41.38226" lon="9.17197">
        <ele>71.27490234375</ele>
        <time>2015-06-21T09:45:11Z</time>
      </trkpt>
      <trkpt lat="41.38226" lon="9.172">
        <ele>70.3134765625</ele>
        <time>2015-06-21T09:45:38Z</time>
      </trkpt>
      <trkpt lat="41.38227" lon="9.17203">
        <ele>71.27490234375</ele>
        <time>2015-06-21T09:45:42Z</time>
      </trkpt>
      <trkpt lat="41.38231" lon="9.17203">
        <ele>70.794189453125</ele>
        <time>2015-06-21T09:45:46Z</time>
      </trkpt>
      <trkpt lat="41.38246" lon="9.17193">
        <ele>68.390869140625</ele>
        <time>2015-06-21T09:46:06Z</time>
      </trkpt>
      <trkpt lat="41.38262" lon="9.17185">
        <ele>65.987670898438</ele>
        <time>2015-06-21T09:46:26Z</time>
      </trkpt>
      <trkpt lat="41.3827" lon="9.17176">
        <ele>65.507080078125</ele>
        <time>2015-06-21T09:46:37Z</time>
      </trkpt>
      <trkpt lat="41.38278" lon="9.17169">
        <ele>64.545654296875</ele>
        <time>2015-06-21T09:46:47Z</time>
      </trkpt>
      <trkpt lat="41.38299" lon="9.17145">
        <ele>63.103637695312</ele>
        <time>2015-06-21T09:47:12Z</time>
      </trkpt>
      <trkpt lat="41.38307" lon="9.17133">
        <ele>62.622924804688</ele>
        <time>2015-06-21T09:47:25Z</time>
      </trkpt>
      <trkpt lat="41.38314" lon="9.17122">
        <ele>62.622924804688</ele>
        <time>2015-06-21T09:47:36Z</time>
      </trkpt>
      <trkpt lat="41.38331" lon="9.17113">
        <ele>61.661743164062</ele>
        <time>2015-06-21T09:47:53Z</time>
      </trkpt>
      <trkpt lat="41.38334" lon="9.17109">
        <ele>62.142333984375</ele>
        <time>2015-06-21T09:47:57Z</time>
      </trkpt>
      <trkpt lat="41.38349" lon="9.17092">
        <ele>60.700317382812</ele>
        <time>2015-06-21T09:48:16Z</time>
      </trkpt>
      <trkpt lat="41.38366" lon="9.17068">
        <ele>61.181030273438</ele>
        <time>2015-06-21T09:48:39Z</time>
      </trkpt>
      <trkpt lat="41.38383" lon="9.17051">
        <ele>62.142333984375</ele>
        <time>2015-06-21T09:48:58Z</time>
      </trkpt>
      <trkpt lat="41.38397" lon="9.17023">
        <ele>61.661743164062</ele>
        <time>2015-06-21T09:49:18Z</time>
      </trkpt>
      <trkpt lat="41.38413" lon="9.16998">
        <ele>62.142333984375</ele>
        <time>2015-06-21T09:49:38Z</time>
      </trkpt>
      <trkpt lat="41.38421" lon="9.16989">
        <ele>62.142333984375</ele>
        <time>2015-06-21T09:49:48Z</time>
      </trkpt>
      <trkpt lat="41.38425" lon="9.16986">
        <ele>62.142333984375</ele>
        <time>2015-06-21T09:49:52Z</time>
      </trkpt>
      <trkpt lat="41.38429" lon="9.16981">
        <ele>62.142333984375</ele>
        <time>2015-06-21T09:50:05Z</time>
      </trkpt>
      <trkpt lat="41.38441" lon="9.16961">
        <ele>62.142333984375</ele>
        <time>2015-06-21T09:50:23Z</time>
      </trkpt>
      <trkpt lat="41.38442" lon="9.1696">
        <ele>61.661743164062</ele>
        <time>2015-06-21T09:50:24Z</time>
      </trkpt>
      <trkpt lat="41.38457" lon="9.16946">
        <ele>62.142333984375</ele>
        <time>2015-06-21T09:50:42Z</time>
      </trkpt>
      <trkpt lat="41.3847" lon="9.16933">
        <ele>63.103637695312</ele>
        <time>2015-06-21T09:51:00Z</time>
      </trkpt>
      <trkpt lat="41.38475" lon="9.16924">
        <ele>62.622924804688</ele>
        <time>2015-06-21T09:51:16Z</time>
      </trkpt>
      <trkpt lat="41.38485" lon="9.16911">
        <ele>64.065063476562</ele>
        <time>2015-06-21T09:51:37Z</time>
      </trkpt>
      <trkpt lat="41.38497" lon="9.16894">
        <ele>65.0263671875</ele>
        <time>2015-06-21T09:51:52Z</time>
      </trkpt>
      <trkpt lat="41.38508" lon="9.16871">
        <ele>65.987670898438</ele>
        <time>2015-06-21T09:52:09Z</time>
      </trkpt>
      <trkpt lat="41.38522" lon="9.16851">
        <ele>66.948974609375</ele>
        <time>2015-06-21T09:52:28Z</time>
      </trkpt>
      <trkpt lat="41.38525" lon="9.16841">
        <ele>67.4296875</ele>
        <time>2015-06-21T09:52:36Z</time>
      </trkpt>
      <trkpt lat="41.38538" lon="9.16823">
        <ele>69.352294921875</ele>
        <time>2015-06-21T09:52:53Z</time>
      </trkpt>
      <trkpt lat="41.38553" lon="9.16801">
        <ele>69.352294921875</ele>
        <time>2015-06-21T09:53:12Z</time>
      </trkpt>
      <trkpt lat="41.38568" lon="9.16774">
        <ele>70.794189453125</ele>
        <time>2015-06-21T09:53:33Z</time>
      </trkpt>
      <trkpt lat="41.38578" lon="9.16744">
        <ele>71.755493164062</ele>
        <time>2015-06-21T09:53:53Z</time>
      </trkpt>
      <trkpt lat="41.38582" lon="9.16724">
        <ele>71.755493164062</ele>
        <time>2015-06-21T09:54:10Z</time>
      </trkpt>
      <trkpt lat="41.38583" lon="9.16713">
        <ele>72.236206054688</ele>
        <time>2015-06-21T09:54:25Z</time>
      </trkpt>
      <trkpt lat="41.38586" lon="9.16686">
        <ele>72.716918945312</ele>
        <time>2015-06-21T09:54:43Z</time>
      </trkpt>
      <trkpt lat="41.38589" lon="9.1665">
        <ele>72.716918945312</ele>
        <time>2015-06-21T09:55:05Z</time>
      </trkpt>
      <trkpt lat="41.38586" lon="9.16618">
        <ele>73.67822265625</ele>
        <time>2015-06-21T09:55:27Z</time>
      </trkpt>
      <trkpt lat="41.38578" lon="9.16613">
        <ele>73.67822265625</ele>
        <time>2015-06-21T09:55:43Z</time>
      </trkpt>
      <trkpt lat="41.38574" lon="9.1661">
        <ele>71.755493164062</ele>
        <time>2015-06-21T09:55:56Z</time>
      </trkpt>
      <trkpt lat="41.38574" lon="9.16607">
        <ele>72.236206054688</ele>
        <time>2015-06-21T09:56:18Z</time>
      </trkpt>
      <trkpt lat="41.38574" lon="9.16597">
        <ele>72.236206054688</ele>
        <time>2015-06-21T09:56:26Z</time>
      </trkpt>
      <trkpt lat="41.38578" lon="9.16594">
        <ele>73.197631835938</ele>
        <time>2015-06-21T09:56:45Z</time>
      </trkpt>
      <trkpt lat="41.38585" lon="9.16595">
        <ele>73.67822265625</ele>
        <time>2015-06-21T09:57:02Z</time>
      </trkpt>
      <trkpt lat="41.38596" lon="9.16605">
        <ele>73.197631835938</ele>
        <time>2015-06-21T09:57:14Z</time>
      </trkpt>
      <trkpt lat="41.38599" lon="9.166">
        <ele>73.197631835938</ele>
        <time>2015-06-21T09:57:19Z</time>
      </trkpt>
      <trkpt lat="41.38608" lon="9.16564">
        <ele>72.716918945312</ele>
        <time>2015-06-21T09:57:42Z</time>
      </trkpt>
      <trkpt lat="41.38614" lon="9.16544">
        <ele>72.236206054688</ele>
        <time>2015-06-21T09:58:00Z</time>
      </trkpt>
      <trkpt lat="41.38619" lon="9.1652">
        <ele>72.716918945312</ele>
        <time>2015-06-21T09:58:17Z</time>
      </trkpt>
      <trkpt lat="41.38622" lon="9.16503">
        <ele>73.67822265625</ele>
        <time>2015-06-21T09:58:29Z</time>
      </trkpt>
      <trkpt lat="41.38623" lon="9.16499">
        <ele>73.197631835938</ele>
        <time>2015-06-21T09:58:32Z</time>
      </trkpt>
      <trkpt lat="41.38627" lon="9.16471">
        <ele>72.716918945312</ele>
        <time>2015-06-21T09:58:51Z</time>
      </trkpt>
      <trkpt lat="41.38629" lon="9.16448">
        <ele>73.197631835938</ele>
        <time>2015-06-21T09:59:08Z</time>
      </trkpt>
      <trkpt lat="41.38625" lon="9.1644">
        <ele>73.67822265625</ele>
        <time>2015-06-21T09:59:17Z</time>
      </trkpt>
      <trkpt lat="41.38619" lon="9.16437">
        <ele>73.197631835938</ele>
        <time>2015-06-21T09:59:23Z</time>
      </trkpt>
      <trkpt lat="41.38614" lon="9.16429">
        <ele>73.197631835938</ele>
        <time>2015-06-21T09:59:32Z</time>
      </trkpt>
      <trkpt lat="41.38608" lon="9.16408">
        <ele>71.755493164062</ele>
        <time>2015-06-21T09:59:53Z</time>
      </trkpt>
      <trkpt lat="41.38608" lon="9.16404">
        <ele>72.716918945312</ele>
        <time>2015-06-21T10:00:10Z</time>
      </trkpt>
      <trkpt lat="41.38609" lon="9.16402">
        <ele>72.236206054688</ele>
        <time>2015-06-21T10:00:18Z</time>
      </trkpt>
      <trkpt lat="41.38621" lon="9.16393">
        <ele>72.716918945312</ele>
        <time>2015-06-21T10:00:31Z</time>
      </trkpt>
      <trkpt lat="41.38624" lon="9.16389">
        <ele>72.236206054688</ele>
        <time>2015-06-21T10:00:35Z</time>
      </trkpt>
      <trkpt lat="41.38636" lon="9.16368">
        <ele>71.27490234375</ele>
        <time>2015-06-21T10:00:53Z</time>
      </trkpt>
      <trkpt lat="41.38637" lon="9.16369">
        <ele>70.794189453125</ele>
        <time>2015-06-21T10:01:09Z</time>
      </trkpt>
      <trkpt lat="41.38641" lon="9.16371">
        <ele>71.27490234375</ele>
        <time>2015-06-21T10:01:13Z</time>
      </trkpt>
      <trkpt lat="41.38652" lon="9.16352">
        <ele>71.755493164062</ele>
        <time>2015-06-21T10:01:31Z</time>
      </trkpt>
      <trkpt lat="41.38653" lon="9.16352">
        <ele>72.236206054688</ele>
        <time>2015-06-21T10:01:32Z</time>
      </trkpt>
      <trkpt lat="41.38657" lon="9.16354">
        <ele>73.197631835938</ele>
        <time>2015-06-21T10:01:36Z</time>
      </trkpt>
      <trkpt lat="41.38662" lon="9.16353">
        <ele>72.716918945312</ele>
        <time>2015-06-21T10:01:41Z</time>
      </trkpt>
      <trkpt lat="41.38667" lon="9.1633">
        <ele>71.27490234375</ele>
        <time>2015-06-21T10:01:59Z</time>
      </trkpt>
      <trkpt lat="41.38676" lon="9.16298">
        <ele>71.27490234375</ele>
        <time>2015-06-21T10:02:22Z</time>
      </trkpt>
      <trkpt lat="41.38682" lon="9.16277">
        <ele>70.3134765625</ele>
        <time>2015-06-21T10:02:40Z</time>
      </trkpt>
      <trkpt lat="41.38687" lon="9.16247">
        <ele>67.910278320312</ele>
        <time>2015-06-21T10:03:00Z</time>
      </trkpt>
      <trkpt lat="41.38695" lon="9.1622">
        <ele>65.987670898438</ele>
        <time>2015-06-21T10:03:21Z</time>
      </trkpt>
      <trkpt lat="41.38699" lon="9.162">
        <ele>65.0263671875</ele>
        <time>2015-06-21T10:03:40Z</time>
      </trkpt>
      <trkpt lat="41.38699" lon="9.16201">
        <ele>64.545654296875</ele>
        <time>2015-06-21T10:04:02Z</time>
      </trkpt>
      <trkpt lat="41.38707" lon="9.16214">
        <ele>65.0263671875</ele>
        <time>2015-06-21T10:04:14Z</time>
      </trkpt>
      <trkpt lat="41.38708" lon="9.16225">
        <ele>65.507080078125</ele>
        <time>2015-06-21T10:04:21Z</time>
      </trkpt>
      <trkpt lat="41.3871" lon="9.16243">
        <ele>66.948974609375</ele>
        <time>2015-06-21T10:04:35Z</time>
      </trkpt>
      <trkpt lat="41.38712" lon="9.16245">
        <ele>65.987670898438</ele>
        <time>2015-06-21T10:04:37Z</time>
      </trkpt>
      <trkpt lat="41.38719" lon="9.16261">
        <ele>65.987670898438</ele>
        <time>2015-06-21T10:04:52Z</time>
      </trkpt>
      <trkpt lat="41.38721" lon="9.16267">
        <ele>64.065063476562</ele>
        <time>2015-06-21T10:05:01Z</time>
      </trkpt>
      <trkpt lat="41.38724" lon="9.16266">
        <ele>63.584350585938</ele>
        <time>2015-06-21T10:05:15Z</time>
      </trkpt>
      <trkpt lat="41.38724" lon="9.16266">
        <ele>63.103637695312</ele>
        <time>2015-06-21T10:05:19Z</time>
      </trkpt>
      <trkpt lat="41.38726" lon="9.16244">
        <ele>62.142333984375</ele>
        <time>2015-06-21T10:05:37Z</time>
      </trkpt>
      <trkpt lat="41.38717" lon="9.16217">
        <ele>58.777709960938</ele>
        <time>2015-06-21T10:06:00Z</time>
      </trkpt>
      <trkpt lat="41.38713" lon="9.16196">
        <ele>56.37451171875</ele>
        <time>2015-06-21T10:06:20Z</time>
      </trkpt>
      <trkpt lat="41.38709" lon="9.16181">
        <ele>53.97119140625</ele>
        <time>2015-06-21T10:06:40Z</time>
      </trkpt>
      <trkpt lat="41.38706" lon="9.16169">
        <ele>50.606567382812</ele>
        <time>2015-06-21T10:06:52Z</time>
      </trkpt>
      <trkpt lat="41.38701" lon="9.16149">
        <ele>47.241821289062</ele>
        <time>2015-06-21T10:07:10Z</time>
      </trkpt>
      <trkpt lat="41.38699" lon="9.16141">
        <ele>45.799926757812</ele>
        <time>2015-06-21T10:07:18Z</time>
      </trkpt>
      <trkpt lat="41.38696" lon="9.16113">
        <ele>42.916015625</ele>
        <time>2015-06-21T10:07:40Z</time>
      </trkpt>
      <trkpt lat="41.38696" lon="9.16092">
        <ele>40.032104492188</ele>
        <time>2015-06-21T10:07:59Z</time>
      </trkpt>
      <trkpt lat="41.38695" lon="9.16074">
        <ele>38.109375</ele>
        <time>2015-06-21T10:08:16Z</time>
      </trkpt>
      <trkpt lat="41.38692" lon="9.16067">
        <ele>37.148071289062</ele>
        <time>2015-06-21T10:08:33Z</time>
      </trkpt>
      <trkpt lat="41.38695" lon="9.16064">
        <ele>38.109375</ele>
        <time>2015-06-21T10:08:45Z</time>
      </trkpt>
      <trkpt lat="41.38701" lon="9.16063">
        <ele>37.628662109375</ele>
        <time>2015-06-21T10:09:01Z</time>
      </trkpt>
      <trkpt lat="41.38712" lon="9.16076">
        <ele>34.26416015625</ele>
        <time>2015-06-21T10:09:20Z</time>
      </trkpt>
      <trkpt lat="41.38713" lon="9.16078">
        <ele>32.341552734375</ele>
        <time>2015-06-21T10:09:24Z</time>
      </trkpt>
      <trkpt lat="41.3872" lon="9.16087">
        <ele>30.418823242188</ele>
        <time>2015-06-21T10:09:39Z</time>
      </trkpt>
      <trkpt lat="41.38725" lon="9.16094">
        <ele>28.015502929688</ele>
        <time>2015-06-21T10:09:50Z</time>
      </trkpt>
      <trkpt lat="41.38735" lon="9.16106">
        <ele>24.651000976562</ele>
        <time>2015-06-21T10:10:06Z</time>
      </trkpt>
      <trkpt lat="41.38742" lon="9.16122">
        <ele>21.766967773438</ele>
        <time>2015-06-21T10:10:21Z</time>
      </trkpt>
      <trkpt lat="41.38751" lon="9.16127">
        <ele>19.844360351562</ele>
        <time>2015-06-21T10:10:40Z</time>
      </trkpt>
      <trkpt lat="41.38755" lon="9.16131">
        <ele>18.40234375</ele>
        <time>2015-06-21T10:10:56Z</time>
      </trkpt>
      <trkpt lat="41.38761" lon="9.16135">
        <ele>17.441162109375</ele>
        <time>2015-06-21T10:11:02Z</time>
      </trkpt>
      <trkpt lat="41.3877" lon="9.16145">
        <ele>14.557006835938</ele>
        <time>2015-06-21T10:11:15Z</time>
      </trkpt>
      <trkpt lat="41.38779" lon="9.16152">
        <ele>12.15380859375</ele>
        <time>2015-06-21T10:11:30Z</time>
      </trkpt>
      <trkpt lat="41.38785" lon="9.16157">
        <ele>10.231201171875</ele>
        <time>2015-06-21T10:11:40Z</time>
      </trkpt>
      <trkpt lat="41.38795" lon="9.16157">
        <ele>8.7891845703125</ele>
        <time>2015-06-21T10:11:54Z</time>
      </trkpt>
      <trkpt lat="41.38802" lon="9.16159">
        <ele>8.7891845703125</ele>
        <time>2015-06-21T10:12:04Z</time>
      </trkpt>
      <trkpt lat="41.38801" lon="9.16161">
        <ele>8.7891845703125</ele>
        <time>2015-06-21T10:12:20Z</time>
      </trkpt>
      <trkpt lat="41.38805" lon="9.16156">
        <ele>8.30859375</ele>
        <time>2015-06-21T10:12:37Z</time>
      </trkpt>
      <trkpt lat="41.38824" lon="9.16148">
        <ele>6.3858642578125</ele>
        <time>2015-06-21T10:12:56Z</time>
      </trkpt>
      <trkpt lat="41.38846" lon="9.1614">
        <ele>6.866455078125</ele>
        <time>2015-06-21T10:13:19Z</time>
      </trkpt>
      <trkpt lat="41.38855" lon="9.16119">
        <ele>6.866455078125</ele>
        <time>2015-06-21T10:13:40Z</time>
      </trkpt>
      <trkpt lat="41.38861" lon="9.16105">
        <ele>6.3858642578125</ele>
        <time>2015-06-21T10:14:01Z</time>
      </trkpt>
      <trkpt lat="41.38862" lon="9.161">
        <ele>7.34716796875</ele>
        <time>2015-06-21T10:14:20Z</time>
      </trkpt>
      <trkpt lat="41.38864" lon="9.16099">
        <ele>6.866455078125</ele>
        <time>2015-06-21T10:14:37Z</time>
      </trkpt>
      <trkpt lat="41.38865" lon="9.161">
        <ele>6.866455078125</ele>
        <time>2015-06-21T10:14:53Z</time>
      </trkpt>
      <trkpt lat="41.38863" lon="9.161">
        <ele>5.9052734375</ele>
        <time>2015-06-21T10:15:11Z</time>
      </trkpt>
      <trkpt lat="41.38867" lon="9.16098">
        <ele>5.9052734375</ele>
        <time>2015-06-21T10:15:53Z</time>
      </trkpt>
      <trkpt lat="41.38864" lon="9.16095">
        <ele>4.94384765625</ele>
        <time>2015-06-21T10:16:17Z</time>
      </trkpt>
      <trkpt lat="41.38865" lon="9.161">
        <ele>5.424560546875</ele>
        <time>2015-06-21T10:16:45Z</time>
      </trkpt>
      <trkpt lat="41.3886" lon="9.16099">
        <ele>3.982666015625</ele>
        <time>2015-06-21T10:17:35Z</time>
      </trkpt>
      <trkpt lat="41.38861" lon="9.16099">
        <ele>3.982666015625</ele>
        <time>2015-06-21T10:18:01Z</time>
      </trkpt>
      <trkpt lat="41.38864" lon="9.16097">
        <ele>4.4632568359375</ele>
        <time>2015-06-21T10:18:32Z</time>
      </trkpt>
      <trkpt lat="41.38868" lon="9.16099">
        <ele>4.4632568359375</ele>
        <time>2015-06-21T10:19:02Z</time>
      </trkpt>
      <trkpt lat="41.38869" lon="9.16098">
        <ele>4.94384765625</ele>
        <time>2015-06-21T10:19:23Z</time>
      </trkpt>
      <trkpt lat="41.38867" lon="9.16098">
        <ele>6.3858642578125</ele>
        <time>2015-06-21T10:20:03Z</time>
      </trkpt>
      <trkpt lat="41.38866" lon="9.16098">
        <ele>6.3858642578125</ele>
        <time>2015-06-21T10:20:25Z</time>
      </trkpt>
      <trkpt lat="41.38867" lon="9.16098">
        <ele>6.3858642578125</ele>
        <time>2015-06-21T10:20:49Z</time>
      </trkpt>
      <trkpt lat="41.38869" lon="9.16099">
        <ele>5.424560546875</ele>
        <time>2015-06-21T10:21:50Z</time>
      </trkpt>
      <trkpt lat="41.38865" lon="9.16095">
        <ele>5.424560546875</ele>
        <time>2015-06-21T10:28:44Z</time>
      </trkpt>
      <trkpt lat="41.38866" lon="9.16096">
        <ele>4.94384765625</ele>
        <time>2015-06-21T10:29:34Z</time>
      </trkpt>
      <trkpt lat="41.38867" lon="9.16097">
        <ele>5.9052734375</ele>
        <time>2015-06-21T10:30:06Z</time>
      </trkpt>
      <trkpt lat="41.38863" lon="9.16095">
        <ele>5.424560546875</ele>
        <time>2015-06-21T10:30:34Z</time>
      </trkpt>
      <trkpt lat="41.38867" lon="9.16096">
        <ele>5.424560546875</ele>
        <time>2015-06-21T10:30:56Z</time>
      </trkpt>
      <trkpt lat="41.38866" lon="9.16095">
        <ele>4.94384765625</ele>
        <time>2015-06-21T10:31:34Z</time>
      </trkpt>
      <trkpt lat="41.38863" lon="9.16093">
        <ele>4.94384765625</ele>
        <time>2015-06-21T10:32:36Z</time>
      </trkpt>
      <trkpt lat="41.38865" lon="9.16092">
        <ele>5.424560546875</ele>
        <time>2015-06-21T10:33:21Z</time>
      </trkpt>
      <trkpt lat="41.38866" lon="9.16092">
        <ele>4.94384765625</ele>
        <time>2015-06-21T10:34:06Z</time>
      </trkpt>
      <trkpt lat="41.38865" lon="9.16091">
        <ele>3.982666015625</ele>
        <time>2015-06-21T10:34:36Z</time>
      </trkpt>
      <trkpt lat="41.38864" lon="9.16091">
        <ele>4.94384765625</ele>
        <time>2015-06-21T10:35:24Z</time>
      </trkpt>
      <trkpt lat="41.38868" lon="9.16094">
        <ele>5.424560546875</ele>
        <time>2015-06-21T10:39:12Z</time>
      </trkpt>
      <trkpt lat="41.38869" lon="9.16098">
        <ele>4.94384765625</ele>
        <time>2015-06-21T10:39:51Z</time>
      </trkpt>
      <trkpt lat="41.38866" lon="9.16094">
        <ele>3.982666015625</ele>
        <time>2015-06-21T10:40:29Z</time>
      </trkpt>
      <trkpt lat="41.38868" lon="9.16098">
        <ele>4.94384765625</ele>
        <time>2015-06-21T10:40:57Z</time>
      </trkpt>
      <trkpt lat="41.38868" lon="9.16097">
        <ele>4.4632568359375</ele>
        <time>2015-06-21T10:41:26Z</time>
      </trkpt>
      <trkpt lat="41.38868" lon="9.16097">
        <ele>3.982666015625</ele>
        <time>2015-06-21T10:42:01Z</time>
      </trkpt>
      <trkpt lat="41.38869" lon="9.16096">
        <ele>4.4632568359375</ele>
        <time>2015-06-21T10:42:32Z</time>
      </trkpt>
      <trkpt lat="41.3887" lon="9.16096">
        <ele>4.4632568359375</ele>
        <time>2015-06-21T10:42:59Z</time>
      </trkpt>
      <trkpt lat="41.38868" lon="9.16096">
        <ele>5.424560546875</ele>
        <time>2015-06-21T10:43:27Z</time>
      </trkpt>
      <trkpt lat="41.38869" lon="9.16097">
        <ele>4.94384765625</ele>
        <time>2015-06-21T10:43:52Z</time>
      </trkpt>
      <trkpt lat="41.38868" lon="9.16097">
        <ele>4.94384765625</ele>
        <time>2015-06-21T10:44:21Z</time>
      </trkpt>
      <trkpt lat="41.38871" lon="9.161">
        <ele>5.424560546875</ele>
        <time>2015-06-21T10:44:50Z</time>
      </trkpt>
      <trkpt lat="41.3887" lon="9.16098">
        <ele>4.94384765625</ele>
        <time>2015-06-21T10:45:24Z</time>
      </trkpt>
      <trkpt lat="41.38864" lon="9.16093">
        <ele>5.9052734375</ele>
        <time>2015-06-21T10:45:54Z</time>
      </trkpt>
      <trkpt lat="41.38862" lon="9.16091">
        <ele>5.9052734375</ele>
        <time>2015-06-21T10:46:02Z</time>
      </trkpt>
      <trkpt lat="41.38869" lon="9.16099">
        <ele>5.424560546875</ele>
        <time>2015-06-21T10:46:19Z</time>
      </trkpt>
      <trkpt lat="41.38869" lon="9.16099">
        <ele>6.3858642578125</ele>
        <time>2015-06-21T10:46:57Z</time>
      </trkpt>
      <trkpt lat="41.38874" lon="9.16103">
        <ele>5.424560546875</ele>
        <time>2015-06-21T10:48:05Z</time>
      </trkpt>
      <trkpt lat="41.38872" lon="9.16099">
        <ele>6.3858642578125</ele>
        <time>2015-06-21T10:49:03Z</time>
      </trkpt>
      <trkpt lat="41.38869" lon="9.16097">
        <ele>6.3858642578125</ele>
        <time>2015-06-21T10:49:20Z</time>
      </trkpt>
      <trkpt lat="41.3887" lon="9.16098">
        <ele>5.9052734375</ele>
        <time>2015-06-21T10:49:36Z</time>
      </trkpt>
      <trkpt lat="41.38867" lon="9.16095">
        <ele>5.9052734375</ele>
        <time>2015-06-21T10:50:03Z</time>
      </trkpt>
      <trkpt lat="41.38864" lon="9.16092">
        <ele>6.3858642578125</ele>
        <time>2015-06-21T10:50:23Z</time>
      </trkpt>
      <trkpt lat="41.38864" lon="9.16092">
        <ele>6.3858642578125</ele>
        <time>2015-06-21T10:50:43Z</time>
      </trkpt>
      <trkpt lat="41.38865" lon="9.16092">
        <ele>7.34716796875</ele>
        <time>2015-06-21T10:51:00Z</time>
      </trkpt>
      <trkpt lat="41.38872" lon="9.16097">
        <ele>6.866455078125</ele>
        <time>2015-06-21T10:51:42Z</time>
      </trkpt>
      <trkpt lat="41.38873" lon="9.16097">
        <ele>6.866455078125</ele>
        <time>2015-06-21T10:52:09Z</time>
      </trkpt>
      <trkpt lat="41.3887" lon="9.16097">
        <ele>7.34716796875</ele>
        <time>2015-06-21T10:52:34Z</time>
      </trkpt>
      <trkpt lat="41.38873" lon="9.16099">
        <ele>7.34716796875</ele>
        <time>2015-06-21T10:52:51Z</time>
      </trkpt>
      <trkpt lat="41.3887" lon="9.16097">
        <ele>7.34716796875</ele>
        <time>2015-06-21T10:53:08Z</time>
      </trkpt>
      <trkpt lat="41.38875" lon="9.16099">
        <ele>7.34716796875</ele>
        <time>2015-06-21T10:53:29Z</time>
      </trkpt>
      <trkpt lat="41.38875" lon="9.16098">
        <ele>7.34716796875</ele>
        <time>2015-06-21T10:53:56Z</time>
      </trkpt>
      <trkpt lat="41.3887" lon="9.16095">
        <ele>7.34716796875</ele>
        <time>2015-06-21T10:54:21Z</time>
      </trkpt>
      <trkpt lat="41.38869" lon="9.16096">
        <ele>7.827880859375</ele>
        <time>2015-06-21T10:55:06Z</time>
      </trkpt>
      <trkpt lat="41.38866" lon="9.16098">
        <ele>6.866455078125</ele>
        <time>2015-06-21T10:55:24Z</time>
      </trkpt>
      <trkpt lat="41.38875" lon="9.16103">
        <ele>7.34716796875</ele>
        <time>2015-06-21T10:55:49Z</time>
      </trkpt>
      <trkpt lat="41.38877" lon="9.16104">
        <ele>7.34716796875</ele>
        <time>2015-06-21T10:56:09Z</time>
      </trkpt>
      <trkpt lat="41.38865" lon="9.16097">
        <ele>6.866455078125</ele>
        <time>2015-06-21T10:56:36Z</time>
      </trkpt>
      <trkpt lat="41.38864" lon="9.16093">
        <ele>6.3858642578125</ele>
        <time>2015-06-21T10:57:12Z</time>
      </trkpt>
      <trkpt lat="41.38863" lon="9.16094">
        <ele>5.424560546875</ele>
        <time>2015-06-21T10:57:39Z</time>
      </trkpt>
      <trkpt lat="41.38868" lon="9.16095">
        <ele>5.424560546875</ele>
        <time>2015-06-21T10:58:26Z</time>
      </trkpt>
      <trkpt lat="41.38871" lon="9.16096">
        <ele>5.9052734375</ele>
        <time>2015-06-21T10:58:52Z</time>
      </trkpt>
      <trkpt lat="41.38871" lon="9.16097">
        <ele>5.9052734375</ele>
        <time>2015-06-21T10:59:15Z</time>
      </trkpt>
      <trkpt lat="41.38872" lon="9.16097">
        <ele>5.424560546875</ele>
        <time>2015-06-21T10:59:49Z</time>
      </trkpt>
      <trkpt lat="41.38875" lon="9.161">
        <ele>6.3858642578125</ele>
        <time>2015-06-21T11:00:58Z</time>
      </trkpt>
      <trkpt lat="41.38873" lon="9.16098">
        <ele>6.3858642578125</ele>
        <time>2015-06-21T11:01:36Z</time>
      </trkpt>
      <trkpt lat="41.38873" lon="9.16099">
        <ele>5.9052734375</ele>
        <time>2015-06-21T11:02:08Z</time>
      </trkpt>
      <trkpt lat="41.38873" lon="9.16099">
        <ele>5.9052734375</ele>
        <time>2015-06-21T11:02:31Z</time>
      </trkpt>
      <trkpt lat="41.38871" lon="9.161">
        <ele>5.424560546875</ele>
        <time>2015-06-21T11:02:52Z</time>
      </trkpt>
      <trkpt lat="41.38873" lon="9.16099">
        <ele>4.94384765625</ele>
        <time>2015-06-21T11:03:46Z</time>
      </trkpt>
      <trkpt lat="41.38872" lon="9.16099">
        <ele>5.424560546875</ele>
        <time>2015-06-21T11:04:12Z</time>
      </trkpt>
      <trkpt lat="41.38872" lon="9.16098">
        <ele>4.94384765625</ele>
        <time>2015-06-21T11:06:32Z</time>
      </trkpt>
      <trkpt lat="41.38873" lon="9.16098">
        <ele>5.9052734375</ele>
        <time>2015-06-21T11:07:08Z</time>
      </trkpt>
      <trkpt lat="41.38872" lon="9.16097">
        <ele>5.424560546875</ele>
        <time>2015-06-21T11:08:24Z</time>
      </trkpt>
      <trkpt lat="41.38879" lon="9.16098">
        <ele>4.4632568359375</ele>
        <time>2015-06-21T11:09:28Z</time>
      </trkpt>
      <trkpt lat="41.38872" lon="9.16098">
        <ele>2.5406494140625</ele>
        <time>2015-06-21T11:10:27Z</time>
      </trkpt>
      <trkpt lat="41.38873" lon="9.161">
        <ele>3.021240234375</ele>
        <time>2015-06-21T11:11:27Z</time>
      </trkpt>
      <trkpt lat="41.3887" lon="9.16096">
        <ele>5.424560546875</ele>
        <time>2015-06-21T11:13:27Z</time>
      </trkpt>
      <trkpt lat="41.38873" lon="9.16101">
        <ele>4.4632568359375</ele>
        <time>2015-06-21T11:13:38Z</time>
      </trkpt>
      <trkpt lat="41.38864" lon="9.16119">
        <ele>4.4632568359375</ele>
        <time>2015-06-21T11:13:57Z</time>
      </trkpt>
      <trkpt lat="41.38862" lon="9.16119">
        <ele>3.501953125</ele>
        <time>2015-06-21T11:13:58Z</time>
      </trkpt>
      <trkpt lat="41.38857" lon="9.16124">
        <ele>3.982666015625</ele>
        <time>2015-06-21T11:14:05Z</time>
      </trkpt>
      <trkpt lat="41.38842" lon="9.16139">
        <ele>3.982666015625</ele>
        <time>2015-06-21T11:14:23Z</time>
      </trkpt>
      <trkpt lat="41.38822" lon="9.16142">
        <ele>4.94384765625</ele>
        <time>2015-06-21T11:14:41Z</time>
      </trkpt>
      <trkpt lat="41.38807" lon="9.16154">
        <ele>7.827880859375</ele>
        <time>2015-06-21T11:14:56Z</time>
      </trkpt>
      <trkpt lat="41.38791" lon="9.16153">
        <ele>7.827880859375</ele>
        <time>2015-06-21T11:15:09Z</time>
      </trkpt>
      <trkpt lat="41.38784" lon="9.16152">
        <ele>9.2698974609375</ele>
        <time>2015-06-21T11:15:20Z</time>
      </trkpt>
      <trkpt lat="41.38776" lon="9.16145">
        <ele>11.192504882812</ele>
        <time>2015-06-21T11:15:34Z</time>
      </trkpt>
      <trkpt lat="41.38774" lon="9.16146">
        <ele>11.673217773438</ele>
        <time>2015-06-21T11:15:38Z</time>
      </trkpt>
      <trkpt lat="41.38769" lon="9.16143">
        <ele>14.076416015625</ele>
        <time>2015-06-21T11:15:48Z</time>
      </trkpt>
      <trkpt lat="41.38756" lon="9.16137">
        <ele>15.9990234375</ele>
        <time>2015-06-21T11:15:59Z</time>
      </trkpt>
      <trkpt lat="41.38748" lon="9.16126">
        <ele>19.36376953125</ele>
        <time>2015-06-21T11:16:16Z</time>
      </trkpt>
      <trkpt lat="41.38743" lon="9.16114">
        <ele>20.324951171875</ele>
        <time>2015-06-21T11:16:32Z</time>
      </trkpt>
      <trkpt lat="41.38735" lon="9.16102">
        <ele>23.208984375</ele>
        <time>2015-06-21T11:16:48Z</time>
      </trkpt>
      <trkpt lat="41.38731" lon="9.16097">
        <ele>25.131713867188</ele>
        <time>2015-06-21T11:16:57Z</time>
      </trkpt>
      <trkpt lat="41.38726" lon="9.1609">
        <ele>28.496215820312</ele>
        <time>2015-06-21T11:17:08Z</time>
      </trkpt>
      <trkpt lat="41.38718" lon="9.16081">
        <ele>30.418823242188</ele>
        <time>2015-06-21T11:17:24Z</time>
      </trkpt>
      <trkpt lat="41.38713" lon="9.16076">
        <ele>33.302856445312</ele>
        <time>2015-06-21T11:17:35Z</time>
      </trkpt>
      <trkpt lat="41.38705" lon="9.16067">
        <ele>35.7060546875</ele>
        <time>2015-06-21T11:17:49Z</time>
      </trkpt>
      <trkpt lat="41.38702" lon="9.16055">
        <ele>38.109375</ele>
        <time>2015-06-21T11:18:05Z</time>
      </trkpt>
      <trkpt lat="41.38711" lon="9.16054">
        <ele>40.032104492188</ele>
        <time>2015-06-21T11:18:18Z</time>
      </trkpt>
      <trkpt lat="41.38724" lon="9.16053">
        <ele>42.916015625</ele>
        <time>2015-06-21T11:18:35Z</time>
      </trkpt>
      <trkpt lat="41.38732" lon="9.16052">
        <ele>45.799926757812</ele>
        <time>2015-06-21T11:18:46Z</time>
      </trkpt>
      <trkpt lat="41.38733" lon="9.16052">
        <ele>46.280639648438</ele>
        <time>2015-06-21T11:18:48Z</time>
      </trkpt>
      <trkpt lat="41.38751" lon="9.16059">
        <ele>49.16455078125</ele>
        <time>2015-06-21T11:19:09Z</time>
      </trkpt>
      <trkpt lat="41.38757" lon="9.16058">
        <ele>51.087158203125</ele>
        <time>2015-06-21T11:19:17Z</time>
      </trkpt>
      <trkpt lat="41.38762" lon="9.16049">
        <ele>53.009765625</ele>
        <time>2015-06-21T11:19:25Z</time>
      </trkpt>
      <trkpt lat="41.38752" lon="9.16039">
        <ele>55.4130859375</ele>
        <time>2015-06-21T11:19:38Z</time>
      </trkpt>
      <trkpt lat="41.38747" lon="9.16041">
        <ele>58.297119140625</ele>
        <time>2015-06-21T11:19:50Z</time>
      </trkpt>
      <trkpt lat="41.38734" lon="9.1603">
        <ele>61.661743164062</ele>
        <time>2015-06-21T11:20:06Z</time>
      </trkpt>
      <trkpt lat="41.38725" lon="9.16028">
        <ele>64.065063476562</ele>
        <time>2015-06-21T11:20:18Z</time>
      </trkpt>
      <trkpt lat="41.38743" lon="9.15983">
        <ele>64.065063476562</ele>
        <time>2015-06-21T11:20:27Z</time>
      </trkpt>
      <trkpt lat="41.38702" lon="9.16003">
        <ele>64.545654296875</ele>
        <time>2015-06-21T11:20:40Z</time>
      </trkpt>
      <trkpt lat="41.38687" lon="9.16002">
        <ele>63.584350585938</ele>
        <time>2015-06-21T11:20:54Z</time>
      </trkpt>
      <trkpt lat="41.38699" lon="9.15994">
        <ele>64.065063476562</ele>
        <time>2015-06-21T11:21:04Z</time>
      </trkpt>
      <trkpt lat="41.38693" lon="9.15996">
        <ele>63.103637695312</ele>
        <time>2015-06-21T11:21:21Z</time>
      </trkpt>
      <trkpt lat="41.38686" lon="9.1599">
        <ele>63.103637695312</ele>
        <time>2015-06-21T11:21:41Z</time>
      </trkpt>
      <trkpt lat="41.38682" lon="9.15985">
        <ele>62.142333984375</ele>
        <time>2015-06-21T11:21:55Z</time>
      </trkpt>
      <trkpt lat="41.38677" lon="9.15972">
        <ele>62.622924804688</ele>
        <time>2015-06-21T11:22:10Z</time>
      </trkpt>
      <trkpt lat="41.38664" lon="9.15969">
        <ele>62.142333984375</ele>
        <time>2015-06-21T11:22:25Z</time>
      </trkpt>
      <trkpt lat="41.38662" lon="9.1596">
        <ele>62.142333984375</ele>
        <time>2015-06-21T11:22:41Z</time>
      </trkpt>
      <trkpt lat="41.38664" lon="9.15955">
        <ele>62.142333984375</ele>
        <time>2015-06-21T11:22:48Z</time>
      </trkpt>
      <trkpt lat="41.3866" lon="9.15936">
        <ele>63.103637695312</ele>
        <time>2015-06-21T11:23:06Z</time>
      </trkpt>
      <trkpt lat="41.38655" lon="9.15934">
        <ele>64.545654296875</ele>
        <time>2015-06-21T11:23:32Z</time>
      </trkpt>
      <trkpt lat="41.38657" lon="9.15934">
        <ele>64.545654296875</ele>
        <time>2015-06-21T11:24:47Z</time>
      </trkpt>
      <trkpt lat="41.38653" lon="9.15927">
        <ele>65.507080078125</ele>
        <time>2015-06-21T11:25:18Z</time>
      </trkpt>
      <trkpt lat="41.38655" lon="9.15927">
        <ele>65.987670898438</ele>
        <time>2015-06-21T11:25:29Z</time>
      </trkpt>
      <trkpt lat="41.38656" lon="9.1593">
        <ele>65.987670898438</ele>
        <time>2015-06-21T11:25:33Z</time>
      </trkpt>
      <trkpt lat="41.38662" lon="9.15937">
        <ele>65.507080078125</ele>
        <time>2015-06-21T11:25:40Z</time>
      </trkpt>
      <trkpt lat="41.38665" lon="9.15938">
        <ele>65.987670898438</ele>
        <time>2015-06-21T11:25:43Z</time>
      </trkpt>
      <trkpt lat="41.38679" lon="9.15943">
        <ele>65.507080078125</ele>
        <time>2015-06-21T11:25:59Z</time>
      </trkpt>
      <trkpt lat="41.3869" lon="9.15942">
        <ele>64.545654296875</ele>
        <time>2015-06-21T11:26:16Z</time>
      </trkpt>
      <trkpt lat="41.3869" lon="9.15926">
        <ele>65.0263671875</ele>
        <time>2015-06-21T11:26:32Z</time>
      </trkpt>
      <trkpt lat="41.3869" lon="9.15917">
        <ele>64.545654296875</ele>
        <time>2015-06-21T11:26:49Z</time>
      </trkpt>
      <trkpt lat="41.38688" lon="9.15904">
        <ele>63.584350585938</ele>
        <time>2015-06-21T11:27:05Z</time>
      </trkpt>
      <trkpt lat="41.38687" lon="9.15898">
        <ele>63.584350585938</ele>
        <time>2015-06-21T11:27:19Z</time>
      </trkpt>
      <trkpt lat="41.38685" lon="9.15895">
        <ele>63.584350585938</ele>
        <time>2015-06-21T11:27:48Z</time>
      </trkpt>
      <trkpt lat="41.38686" lon="9.15894">
        <ele>63.103637695312</ele>
        <time>2015-06-21T11:28:04Z</time>
      </trkpt>
      <trkpt lat="41.38683" lon="9.15892">
        <ele>63.103637695312</ele>
        <time>2015-06-21T11:28:23Z</time>
      </trkpt>
      <trkpt lat="41.38683" lon="9.15879">
        <ele>62.622924804688</ele>
        <time>2015-06-21T11:28:36Z</time>
      </trkpt>
      <trkpt lat="41.38682" lon="9.15867">
        <ele>62.142333984375</ele>
        <time>2015-06-21T11:28:52Z</time>
      </trkpt>
      <trkpt lat="41.38681" lon="9.15856">
        <ele>61.181030273438</ele>
        <time>2015-06-21T11:29:03Z</time>
      </trkpt>
      <trkpt lat="41.38678" lon="9.15844">
        <ele>59.739135742188</ele>
        <time>2015-06-21T11:29:15Z</time>
      </trkpt>
      <trkpt lat="41.3868" lon="9.15832">
        <ele>59.258422851562</ele>
        <time>2015-06-21T11:29:30Z</time>
      </trkpt>
      <trkpt lat="41.3868" lon="9.15819">
        <ele>57.816528320312</ele>
        <time>2015-06-21T11:29:46Z</time>
      </trkpt>
      <trkpt lat="41.38674" lon="9.15808">
        <ele>57.816528320312</ele>
        <time>2015-06-21T11:30:00Z</time>
      </trkpt>
      <trkpt lat="41.38674" lon="9.15805">
        <ele>58.297119140625</ele>
        <time>2015-06-21T11:30:28Z</time>
      </trkpt>
      <trkpt lat="41.38673" lon="9.15797">
        <ele>58.777709960938</ele>
        <time>2015-06-21T11:30:57Z</time>
      </trkpt>
      <trkpt lat="41.38677" lon="9.1579">
        <ele>59.739135742188</ele>
        <time>2015-06-21T11:31:11Z</time>
      </trkpt>
      <trkpt lat="41.3868" lon="9.15783">
        <ele>59.739135742188</ele>
        <time>2015-06-21T11:31:30Z</time>
      </trkpt>
      <trkpt lat="41.38684" lon="9.1577">
        <ele>60.700317382812</ele>
        <time>2015-06-21T11:31:45Z</time>
      </trkpt>
      <trkpt lat="41.38688" lon="9.15768">
        <ele>61.661743164062</ele>
        <time>2015-06-21T11:31:48Z</time>
      </trkpt>
      <trkpt lat="41.38693" lon="9.15752">
        <ele>62.622924804688</ele>
        <time>2015-06-21T11:32:06Z</time>
      </trkpt>
      <trkpt lat="41.38694" lon="9.15738">
        <ele>63.584350585938</ele>
        <time>2015-06-21T11:32:20Z</time>
      </trkpt>
      <trkpt lat="41.38693" lon="9.15733">
        <ele>64.065063476562</ele>
        <time>2015-06-21T11:32:27Z</time>
      </trkpt>
      <trkpt lat="41.38695" lon="9.15723">
        <ele>64.545654296875</ele>
        <time>2015-06-21T11:32:35Z</time>
      </trkpt>
      <trkpt lat="41.38701" lon="9.15706">
        <ele>64.545654296875</ele>
        <time>2015-06-21T11:32:54Z</time>
      </trkpt>
      <trkpt lat="41.38701" lon="9.15695">
        <ele>64.545654296875</ele>
        <time>2015-06-21T11:33:11Z</time>
      </trkpt>
      <trkpt lat="41.38706" lon="9.15692">
        <ele>64.545654296875</ele>
        <time>2015-06-21T11:33:29Z</time>
      </trkpt>
      <trkpt lat="41.38713" lon="9.15674">
        <ele>65.0263671875</ele>
        <time>2015-06-21T11:33:47Z</time>
      </trkpt>
      <trkpt lat="41.38723" lon="9.1568">
        <ele>64.545654296875</ele>
        <time>2015-06-21T11:34:04Z</time>
      </trkpt>
      <trkpt lat="41.38724" lon="9.15679">
        <ele>65.0263671875</ele>
        <time>2015-06-21T11:34:11Z</time>
      </trkpt>
      <trkpt lat="41.38722" lon="9.15675">
        <ele>65.0263671875</ele>
        <time>2015-06-21T11:34:15Z</time>
      </trkpt>
      <trkpt lat="41.38725" lon="9.15664">
        <ele>64.545654296875</ele>
        <time>2015-06-21T11:34:35Z</time>
      </trkpt>
      <trkpt lat="41.38723" lon="9.15655">
        <ele>64.545654296875</ele>
        <time>2015-06-21T11:35:00Z</time>
      </trkpt>
      <trkpt lat="41.38737" lon="9.15656">
        <ele>62.622924804688</ele>
        <time>2015-06-21T11:35:20Z</time>
      </trkpt>
      <trkpt lat="41.38739" lon="9.15661">
        <ele>61.661743164062</ele>
        <time>2015-06-21T11:35:25Z</time>
      </trkpt>
      <trkpt lat="41.3874" lon="9.15663">
        <ele>60.700317382812</ele>
        <time>2015-06-21T11:35:27Z</time>
      </trkpt>
      <trkpt lat="41.38737" lon="9.15677">
        <ele>59.258422851562</ele>
        <time>2015-06-21T11:35:41Z</time>
      </trkpt>
      <trkpt lat="41.38727" lon="9.15708">
        <ele>56.37451171875</ele>
        <time>2015-06-21T11:36:06Z</time>
      </trkpt>
      <trkpt lat="41.38725" lon="9.15713">
        <ele>55.893798828125</ele>
        <time>2015-06-21T11:36:10Z</time>
      </trkpt>
      <trkpt lat="41.38716" lon="9.15733">
        <ele>55.4130859375</ele>
        <time>2015-06-21T11:36:26Z</time>
      </trkpt>
      <trkpt lat="41.3871" lon="9.15761">
        <ele>55.4130859375</ele>
        <time>2015-06-21T11:36:45Z</time>
      </trkpt>
      <trkpt lat="41.38709" lon="9.15766">
        <ele>55.893798828125</ele>
        <time>2015-06-21T11:36:49Z</time>
      </trkpt>
      <trkpt lat="41.38706" lon="9.15774">
        <ele>55.893798828125</ele>
        <time>2015-06-21T11:36:55Z</time>
      </trkpt>
      <trkpt lat="41.38703" lon="9.15782">
        <ele>56.855102539062</ele>
        <time>2015-06-21T11:37:00Z</time>
      </trkpt>
      <trkpt lat="41.38689" lon="9.15806">
        <ele>57.816528320312</ele>
        <time>2015-06-21T11:37:20Z</time>
      </trkpt>
      <trkpt lat="41.38689" lon="9.15809">
        <ele>57.335815429688</ele>
        <time>2015-06-21T11:37:22Z</time>
      </trkpt>
      <trkpt lat="41.38701" lon="9.15821">
        <ele>55.893798828125</ele>
        <time>2015-06-21T11:37:43Z</time>
      </trkpt>
      <trkpt lat="41.38706" lon="9.15823">
        <ele>55.4130859375</ele>
        <time>2015-06-21T11:37:58Z</time>
      </trkpt>
      <trkpt lat="41.38715" lon="9.15826">
        <ele>55.4130859375</ele>
        <time>2015-06-21T11:38:12Z</time>
      </trkpt>
      <trkpt lat="41.38731" lon="9.15823">
        <ele>54.932373046875</ele>
        <time>2015-06-21T11:38:29Z</time>
      </trkpt>
      <trkpt lat="41.38755" lon="9.15811">
        <ele>54.451782226562</ele>
        <time>2015-06-21T11:38:51Z</time>
      </trkpt>
      <trkpt lat="41.38757" lon="9.15811">
        <ele>54.451782226562</ele>
        <time>2015-06-21T11:38:53Z</time>
      </trkpt>
      <trkpt lat="41.38767" lon="9.15815">
        <ele>54.451782226562</ele>
        <time>2015-06-21T11:39:13Z</time>
      </trkpt>
    </trkseg>
  </trk>
  <trk>
    <name><![CDATA[ACTIVE LOG 003]]></name>
    <trkseg>
      <trkpt lat="41.38769" lon="9.15817">
        <ele>54.932373046875</ele>
        <time>2015-06-21T11:39:32Z</time>
      </trkpt>
    </trkseg>
  </trk>
  <trk>
    <name><![CDATA[ACTIVE LOG 004]]></name>
    <trkseg>
      <trkpt lat="41.38765" lon="9.15817">
        <ele>54.451782226562</ele>
        <time>2015-06-21T11:40:03Z</time>
      </trkpt>
      <trkpt lat="41.38767" lon="9.15818">
        <ele>54.932373046875</ele>
        <time>2015-06-21T11:40:16Z</time>
      </trkpt>
      <trkpt lat="41.38766" lon="9.15834">
        <ele>54.451782226562</ele>
        <time>2015-06-21T11:40:29Z</time>
      </trkpt>
      <trkpt lat="41.38772" lon="9.15841">
        <ele>54.932373046875</ele>
        <time>2015-06-21T11:40:41Z</time>
      </trkpt>
      <trkpt lat="41.38771" lon="9.15843">
        <ele>54.451782226562</ele>
        <time>2015-06-21T11:40:43Z</time>
      </trkpt>
      <trkpt lat="41.38762" lon="9.15842">
        <ele>54.451782226562</ele>
        <time>2015-06-21T11:40:47Z</time>
      </trkpt>
      <trkpt lat="41.38766" lon="9.15833">
        <ele>54.932373046875</ele>
        <time>2015-06-21T11:40:53Z</time>
      </trkpt>
      <trkpt lat="41.38768" lon="9.15825">
        <ele>54.932373046875</ele>
        <time>2015-06-21T11:40:58Z</time>
      </trkpt>
      <trkpt lat="41.38766" lon="9.15811">
        <ele>54.451782226562</ele>
        <time>2015-06-21T11:41:12Z</time>
      </trkpt>
      <trkpt lat="41.38764" lon="9.15811">
        <ele>54.451782226562</ele>
        <time>2015-06-21T11:41:15Z</time>
      </trkpt>
      <trkpt lat="41.38746" lon="9.15816">
        <ele>55.4130859375</ele>
        <time>2015-06-21T11:41:32Z</time>
      </trkpt>
      <trkpt lat="41.38738" lon="9.15819">
        <ele>55.4130859375</ele>
        <time>2015-06-21T11:41:39Z</time>
      </trkpt>
      <trkpt lat="41.38738" lon="9.15826">
        <ele>58.297119140625</ele>
        <time>2015-06-21T11:41:51Z</time>
      </trkpt>
      <trkpt lat="41.38743" lon="9.1584">
        <ele>59.739135742188</ele>
        <time>2015-06-21T11:42:03Z</time>
      </trkpt>
      <trkpt lat="41.38741" lon="9.15846">
        <ele>61.181030273438</ele>
        <time>2015-06-21T11:42:14Z</time>
      </trkpt>
      <trkpt lat="41.3874" lon="9.15845">
        <ele>61.661743164062</ele>
        <time>2015-06-21T11:42:15Z</time>
      </trkpt>
      <trkpt lat="41.38727" lon="9.15852">
        <ele>61.661743164062</ele>
        <time>2015-06-21T11:42:29Z</time>
      </trkpt>
      <trkpt lat="41.38725" lon="9.15864">
        <ele>63.103637695312</ele>
        <time>2015-06-21T11:42:41Z</time>
      </trkpt>
      <trkpt lat="41.38727" lon="9.15873">
        <ele>65.0263671875</ele>
        <time>2015-06-21T11:42:54Z</time>
      </trkpt>
      <trkpt lat="41.38727" lon="9.15874">
        <ele>65.507080078125</ele>
        <time>2015-06-21T11:42:55Z</time>
      </trkpt>
      <trkpt lat="41.38728" lon="9.15894">
        <ele>67.4296875</ele>
        <time>2015-06-21T11:43:10Z</time>
      </trkpt>
      <trkpt lat="41.38725" lon="9.15906">
        <ele>67.910278320312</ele>
        <time>2015-06-21T11:43:21Z</time>
      </trkpt>
      <trkpt lat="41.38724" lon="9.1593">
        <ele>68.390869140625</ele>
        <time>2015-06-21T11:43:40Z</time>
      </trkpt>
      <trkpt lat="41.38725" lon="9.15933">
        <ele>68.390869140625</ele>
        <time>2015-06-21T11:43:42Z</time>
      </trkpt>
      <trkpt lat="41.38725" lon="9.15953">
        <ele>68.87158203125</ele>
        <time>2015-06-21T11:43:56Z</time>
      </trkpt>
      <trkpt lat="41.38726" lon="9.15955">
        <ele>69.352294921875</ele>
        <time>2015-06-21T11:43:59Z</time>
      </trkpt>
      <trkpt lat="41.38728" lon="9.15964">
        <ele>69.352294921875</ele>
        <time>2015-06-21T11:44:04Z</time>
      </trkpt>
      <trkpt lat="41.38729" lon="9.15991">
        <ele>68.87158203125</ele>
        <time>2015-06-21T11:44:23Z</time>
      </trkpt>
      <trkpt lat="41.38727" lon="9.15995">
        <ele>68.87158203125</ele>
        <time>2015-06-21T11:44:35Z</time>
      </trkpt>
      <trkpt lat="41.38683" lon="9.15964">
        <ele>68.87158203125</ele>
        <time>2015-06-21T11:44:59Z</time>
      </trkpt>
    </trkseg>
  </trk>
  <trk>
    <name><![CDATA[ACTIVE LOG 005]]></name>
    <trkseg>
      <trkpt lat="41.38667" lon="9.15953">
        <ele>67.910278320312</ele>
        <time>2015-06-21T11:45:09Z</time>
      </trkpt>
    </trkseg>
  </trk>
  <trk>
    <name><![CDATA[ACTIVE LOG 006]]></name>
    <trkseg>
      <trkpt lat="41.38762" lon="9.16034">
        <ele>66.948974609375</ele>
        <time>2015-06-21T11:45:18Z</time>
      </trkpt>
      <trkpt lat="41.38745" lon="9.1603">
        <ele>63.584350585938</ele>
        <time>2015-06-21T11:45:34Z</time>
      </trkpt>
      <trkpt lat="41.38756" lon="9.16036">
        <ele>60.2197265625</ele>
        <time>2015-06-21T11:45:50Z</time>
      </trkpt>
      <trkpt lat="41.38762" lon="9.16041">
        <ele>59.739135742188</ele>
        <time>2015-06-21T11:45:59Z</time>
      </trkpt>
      <trkpt lat="41.38757" lon="9.16054">
        <ele>57.816528320312</ele>
        <time>2015-06-21T11:46:10Z</time>
      </trkpt>
      <trkpt lat="41.38752" lon="9.16064">
        <ele>56.855102539062</ele>
        <time>2015-06-21T11:46:25Z</time>
      </trkpt>
      <trkpt lat="41.38753" lon="9.16064">
        <ele>56.855102539062</ele>
        <time>2015-06-21T11:46:48Z</time>
      </trkpt>
      <trkpt lat="41.38748" lon="9.1606">
        <ele>56.855102539062</ele>
        <time>2015-06-21T11:47:00Z</time>
      </trkpt>
      <trkpt lat="41.38738" lon="9.16053">
        <ele>53.490478515625</ele>
        <time>2015-06-21T11:47:14Z</time>
      </trkpt>
      <trkpt lat="41.38724" lon="9.1605">
        <ele>49.645263671875</ele>
        <time>2015-06-21T11:47:33Z</time>
      </trkpt>
      <trkpt lat="41.38714" lon="9.16051">
        <ele>46.280639648438</ele>
        <time>2015-06-21T11:47:46Z</time>
      </trkpt>
      <trkpt lat="41.38713" lon="9.16052">
        <ele>46.76123046875</ele>
        <time>2015-06-21T11:47:47Z</time>
      </trkpt>
      <trkpt lat="41.387" lon="9.16054">
        <ele>43.877319335938</ele>
        <time>2015-06-21T11:48:05Z</time>
      </trkpt>
      <trkpt lat="41.38697" lon="9.16075">
        <ele>44.358032226562</ele>
        <time>2015-06-21T11:48:24Z</time>
      </trkpt>
      <trkpt lat="41.38699" lon="9.1609">
        <ele>45.319213867188</ele>
        <time>2015-06-21T11:48:41Z</time>
      </trkpt>
      <trkpt lat="41.387" lon="9.16104">
        <ele>47.722534179688</ele>
        <time>2015-06-21T11:48:54Z</time>
      </trkpt>
      <trkpt lat="41.387" lon="9.16128">
        <ele>50.606567382812</ele>
        <time>2015-06-21T11:49:13Z</time>
      </trkpt>
      <trkpt lat="41.38704" lon="9.16147">
        <ele>53.009765625</ele>
        <time>2015-06-21T11:49:33Z</time>
      </trkpt>
      <trkpt lat="41.38707" lon="9.16163">
        <ele>55.4130859375</ele>
        <time>2015-06-21T11:49:50Z</time>
      </trkpt>
      <trkpt lat="41.38712" lon="9.16181">
        <ele>58.297119140625</ele>
        <time>2015-06-21T11:50:09Z</time>
      </trkpt>
      <trkpt lat="41.38717" lon="9.16196">
        <ele>61.181030273438</ele>
        <time>2015-06-21T11:50:28Z</time>
      </trkpt>
      <trkpt lat="41.38719" lon="9.16206">
        <ele>63.584350585938</ele>
        <time>2015-06-21T11:50:41Z</time>
      </trkpt>
      <trkpt lat="41.3872" lon="9.1622">
        <ele>64.065063476562</ele>
        <time>2015-06-21T11:50:57Z</time>
      </trkpt>
      <trkpt lat="41.38727" lon="9.16242">
        <ele>65.507080078125</ele>
        <time>2015-06-21T11:51:17Z</time>
      </trkpt>
      <trkpt lat="41.38728" lon="9.16259">
        <ele>67.910278320312</ele>
        <time>2015-06-21T11:51:32Z</time>
      </trkpt>
      <trkpt lat="41.38726" lon="9.16263">
        <ele>67.910278320312</ele>
        <time>2015-06-21T11:51:35Z</time>
      </trkpt>
      <trkpt lat="41.38721" lon="9.16275">
        <ele>68.390869140625</ele>
        <time>2015-06-21T11:51:55Z</time>
      </trkpt>
      <trkpt lat="41.38712" lon="9.16294">
        <ele>70.794189453125</ele>
        <time>2015-06-21T11:52:12Z</time>
      </trkpt>
      <trkpt lat="41.387" lon="9.16309">
        <ele>70.794189453125</ele>
        <time>2015-06-21T11:52:30Z</time>
      </trkpt>
      <trkpt lat="41.38693" lon="9.1632">
        <ele>73.197631835938</ele>
        <time>2015-06-21T11:52:42Z</time>
      </trkpt>
      <trkpt lat="41.38683" lon="9.16336">
        <ele>73.197631835938</ele>
        <time>2015-06-21T11:52:58Z</time>
      </trkpt>
      <trkpt lat="41.38671" lon="9.16349">
        <ele>75.600830078125</ele>
        <time>2015-06-21T11:53:13Z</time>
      </trkpt>
      <trkpt lat="41.38659" lon="9.1637">
        <ele>75.600830078125</ele>
        <time>2015-06-21T11:53:32Z</time>
      </trkpt>
      <trkpt lat="41.38649" lon="9.16395">
        <ele>76.081420898438</ele>
        <time>2015-06-21T11:53:51Z</time>
      </trkpt>
      <trkpt lat="41.3864" lon="9.16421">
        <ele>76.081420898438</ele>
        <time>2015-06-21T11:54:10Z</time>
      </trkpt>
      <trkpt lat="41.38634" lon="9.16447">
        <ele>75.600830078125</ele>
        <time>2015-06-21T11:54:29Z</time>
      </trkpt>
      <trkpt lat="41.3863" lon="9.16463">
        <ele>76.081420898438</ele>
        <time>2015-06-21T11:54:41Z</time>
      </trkpt>
      <trkpt lat="41.38625" lon="9.16494">
        <ele>75.600830078125</ele>
        <time>2015-06-21T11:55:01Z</time>
      </trkpt>
      <trkpt lat="41.3862" lon="9.16522">
        <ele>75.120239257812</ele>
        <time>2015-06-21T11:55:20Z</time>
      </trkpt>
      <trkpt lat="41.38614" lon="9.1655">
        <ele>75.120239257812</ele>
        <time>2015-06-21T11:55:39Z</time>
      </trkpt>
      <trkpt lat="41.38606" lon="9.16573">
        <ele>75.600830078125</ele>
        <time>2015-06-21T11:55:57Z</time>
      </trkpt>
      <trkpt lat="41.38597" lon="9.16606">
        <ele>75.600830078125</ele>
        <time>2015-06-21T11:56:21Z</time>
      </trkpt>
      <trkpt lat="41.38588" lon="9.16613">
        <ele>76.081420898438</ele>
        <time>2015-06-21T11:56:35Z</time>
      </trkpt>
      <trkpt lat="41.38587" lon="9.16614">
        <ele>76.081420898438</ele>
        <time>2015-06-21T11:56:51Z</time>
      </trkpt>
      <trkpt lat="41.3859" lon="9.16618">
        <ele>76.081420898438</ele>
        <time>2015-06-21T11:56:58Z</time>
      </trkpt>
      <trkpt lat="41.38589" lon="9.16652">
        <ele>75.600830078125</ele>
        <time>2015-06-21T11:57:20Z</time>
      </trkpt>
      <trkpt lat="41.38587" lon="9.16687">
        <ele>76.081420898438</ele>
        <time>2015-06-21T11:57:43Z</time>
      </trkpt>
      <trkpt lat="41.38583" lon="9.1672">
        <ele>75.600830078125</ele>
        <time>2015-06-21T11:58:04Z</time>
      </trkpt>
      <trkpt lat="41.38579" lon="9.16745">
        <ele>74.639526367188</ele>
        <time>2015-06-21T11:58:22Z</time>
      </trkpt>
      <trkpt lat="41.38579" lon="9.16747">
        <ele>74.158813476562</ele>
        <time>2015-06-21T11:58:23Z</time>
      </trkpt>
      <trkpt lat="41.38577" lon="9.16752">
        <ele>74.158813476562</ele>
        <time>2015-06-21T11:58:27Z</time>
      </trkpt>
      <trkpt lat="41.38572" lon="9.16769">
        <ele>74.639526367188</ele>
        <time>2015-06-21T11:58:41Z</time>
      </trkpt>
      <trkpt lat="41.38565" lon="9.16781">
        <ele>74.158813476562</ele>
        <time>2015-06-21T11:58:52Z</time>
      </trkpt>
      <trkpt lat="41.38557" lon="9.16794">
        <ele>72.236206054688</ele>
        <time>2015-06-21T11:59:07Z</time>
      </trkpt>
      <trkpt lat="41.38548" lon="9.16807">
        <ele>72.716918945312</ele>
        <time>2015-06-21T11:59:23Z</time>
      </trkpt>
      <trkpt lat="41.38541" lon="9.16819">
        <ele>71.27490234375</ele>
        <time>2015-06-21T11:59:38Z</time>
      </trkpt>
      <trkpt lat="41.38527" lon="9.16839">
        <ele>70.3134765625</ele>
        <time>2015-06-21T11:59:58Z</time>
      </trkpt>
      <trkpt lat="41.3852" lon="9.16854">
        <ele>69.832885742188</ele>
        <time>2015-06-21T12:00:11Z</time>
      </trkpt>
      <trkpt lat="41.38517" lon="9.16858">
        <ele>69.832885742188</ele>
        <time>2015-06-21T12:00:15Z</time>
      </trkpt>
      <trkpt lat="41.38506" lon="9.16878">
        <ele>68.87158203125</ele>
        <time>2015-06-21T12:00:34Z</time>
      </trkpt>
      <trkpt lat="41.38498" lon="9.16892">
        <ele>67.910278320312</ele>
        <time>2015-06-21T12:00:49Z</time>
      </trkpt>
      <trkpt lat="41.38486" lon="9.16912">
        <ele>67.4296875</ele>
        <time>2015-06-21T12:01:07Z</time>
      </trkpt>
      <trkpt lat="41.38476" lon="9.16924">
        <ele>65.987670898438</ele>
        <time>2015-06-21T12:01:22Z</time>
      </trkpt>
      <trkpt lat="41.38473" lon="9.16931">
        <ele>65.987670898438</ele>
        <time>2015-06-21T12:01:28Z</time>
      </trkpt>
      <trkpt lat="41.38458" lon="9.16948">
        <ele>65.507080078125</ele>
        <time>2015-06-21T12:01:48Z</time>
      </trkpt>
      <trkpt lat="41.38446" lon="9.16959">
        <ele>65.507080078125</ele>
        <time>2015-06-21T12:02:03Z</time>
      </trkpt>
      <trkpt lat="41.38434" lon="9.16972">
        <ele>65.0263671875</ele>
        <time>2015-06-21T12:02:18Z</time>
      </trkpt>
      <trkpt lat="41.38422" lon="9.16989">
        <ele>64.065063476562</ele>
        <time>2015-06-21T12:02:35Z</time>
      </trkpt>
      <trkpt lat="41.38407" lon="9.17009">
        <ele>64.545654296875</ele>
        <time>2015-06-21T12:02:54Z</time>
      </trkpt>
      <trkpt lat="41.38393" lon="9.17037">
        <ele>64.065063476562</ele>
        <time>2015-06-21T12:03:15Z</time>
      </trkpt>
      <trkpt lat="41.38389" lon="9.17043">
        <ele>64.065063476562</ele>
        <time>2015-06-21T12:03:23Z</time>
      </trkpt>
      <trkpt lat="41.38389" lon="9.1704">
        <ele>65.0263671875</ele>
        <time>2015-06-21T12:03:40Z</time>
      </trkpt>
      <trkpt lat="41.38389" lon="9.17041">
        <ele>64.545654296875</ele>
        <time>2015-06-21T12:04:06Z</time>
      </trkpt>
      <trkpt lat="41.38377" lon="9.17057">
        <ele>64.065063476562</ele>
        <time>2015-06-21T12:04:23Z</time>
      </trkpt>
      <trkpt lat="41.38364" lon="9.17071">
        <ele>63.584350585938</ele>
        <time>2015-06-21T12:04:39Z</time>
      </trkpt>
      <trkpt lat="41.3836" lon="9.17077">
        <ele>63.103637695312</ele>
        <time>2015-06-21T12:04:44Z</time>
      </trkpt>
      <trkpt lat="41.38342" lon="9.17098">
        <ele>63.584350585938</ele>
        <time>2015-06-21T12:05:05Z</time>
      </trkpt>
      <trkpt lat="41.38324" lon="9.17121">
        <ele>64.545654296875</ele>
        <time>2015-06-21T12:05:26Z</time>
      </trkpt>
      <trkpt lat="41.38305" lon="9.17139">
        <ele>65.0263671875</ele>
        <time>2015-06-21T12:05:46Z</time>
      </trkpt>
      <trkpt lat="41.38288" lon="9.1716">
        <ele>65.507080078125</ele>
        <time>2015-06-21T12:06:06Z</time>
      </trkpt>
      <trkpt lat="41.38269" lon="9.17179">
        <ele>67.4296875</ele>
        <time>2015-06-21T12:06:26Z</time>
      </trkpt>
      <trkpt lat="41.38253" lon="9.1719">
        <ele>68.87158203125</ele>
        <time>2015-06-21T12:06:43Z</time>
      </trkpt>
      <trkpt lat="41.38242" lon="9.17196">
        <ele>70.794189453125</ele>
        <time>2015-06-21T12:06:56Z</time>
      </trkpt>
      <trkpt lat="41.38231" lon="9.17203">
        <ele>72.236206054688</ele>
        <time>2015-06-21T12:07:08Z</time>
      </trkpt>
      <trkpt lat="41.38211" lon="9.17217">
        <ele>74.158813476562</ele>
        <time>2015-06-21T12:07:29Z</time>
      </trkpt>
      <trkpt lat="41.38201" lon="9.17227">
        <ele>77.042846679688</ele>
        <time>2015-06-21T12:07:43Z</time>
      </trkpt>
      <trkpt lat="41.38188" lon="9.17242">
        <ele>78.965454101562</ele>
        <time>2015-06-21T12:08:02Z</time>
      </trkpt>
      <trkpt lat="41.38176" lon="9.17257">
        <ele>82.810791015625</ele>
        <time>2015-06-21T12:08:21Z</time>
      </trkpt>
      <trkpt lat="41.38176" lon="9.17257">
        <ele>82.810791015625</ele>
        <time>2015-06-21T12:08:22Z</time>
      </trkpt>
      <trkpt lat="41.38166" lon="9.17279">
        <ele>84.252685546875</ele>
        <time>2015-06-21T12:08:41Z</time>
      </trkpt>
      <trkpt lat="41.38158" lon="9.17298">
        <ele>86.656005859375</ele>
        <time>2015-06-21T12:08:58Z</time>
      </trkpt>
      <trkpt lat="41.38151" lon="9.17326">
        <ele>88.098022460938</ele>
        <time>2015-06-21T12:09:18Z</time>
      </trkpt>
      <trkpt lat="41.38139" lon="9.17354">
        <ele>90.501342773438</ele>
        <time>2015-06-21T12:09:40Z</time>
      </trkpt>
      <trkpt lat="41.38125" lon="9.1738">
        <ele>92.904541015625</ele>
        <time>2015-06-21T12:10:01Z</time>
      </trkpt>
      <trkpt lat="41.38113" lon="9.17391">
        <ele>93.385131835938</ele>
        <time>2015-06-21T12:10:16Z</time>
      </trkpt>
      <trkpt lat="41.38096" lon="9.17397">
        <ele>93.865844726562</ele>
        <time>2015-06-21T12:10:32Z</time>
      </trkpt>
      <trkpt lat="41.38083" lon="9.17419">
        <ele>93.865844726562</ele>
        <time>2015-06-21T12:10:49Z</time>
      </trkpt>
      <trkpt lat="41.38062" lon="9.17444">
        <ele>94.8271484375</ele>
        <time>2015-06-21T12:11:13Z</time>
      </trkpt>
      <trkpt lat="41.38043" lon="9.17471">
        <ele>95.788452148438</ele>
        <time>2015-06-21T12:11:36Z</time>
      </trkpt>
      <trkpt lat="41.38028" lon="9.17502">
        <ele>96.269287109375</ele>
        <time>2015-06-21T12:11:58Z</time>
      </trkpt>
      <trkpt lat="41.3801" lon="9.17533">
        <ele>96.749877929688</ele>
        <time>2015-06-21T12:12:22Z</time>
      </trkpt>
      <trkpt lat="41.37997" lon="9.17567">
        <ele>97.23046875</ele>
        <time>2015-06-21T12:12:46Z</time>
      </trkpt>
      <trkpt lat="41.37983" lon="9.17595">
        <ele>97.23046875</ele>
        <time>2015-06-21T12:13:05Z</time>
      </trkpt>
      <trkpt lat="41.3797" lon="9.1764">
        <ele>97.23046875</ele>
        <time>2015-06-21T12:13:32Z</time>
      </trkpt>
      <trkpt lat="41.37955" lon="9.17686">
        <ele>96.749877929688</ele>
        <time>2015-06-21T12:14:01Z</time>
      </trkpt>
      <trkpt lat="41.37945" lon="9.17719">
        <ele>96.269287109375</ele>
        <time>2015-06-21T12:14:23Z</time>
      </trkpt>
      <trkpt lat="41.37938" lon="9.17759">
        <ele>96.269287109375</ele>
        <time>2015-06-21T12:14:47Z</time>
      </trkpt>
      <trkpt lat="41.37938" lon="9.17795">
        <ele>95.307739257812</ele>
        <time>2015-06-21T12:15:09Z</time>
      </trkpt>
      <trkpt lat="41.37937" lon="9.17806">
        <ele>94.8271484375</ele>
        <time>2015-06-21T12:15:18Z</time>
      </trkpt>
      <trkpt lat="41.37936" lon="9.17817">
        <ele>93.865844726562</ele>
        <time>2015-06-21T12:15:25Z</time>
      </trkpt>
      <trkpt lat="41.37925" lon="9.17834">
        <ele>92.423950195312</ele>
        <time>2015-06-21T12:15:39Z</time>
      </trkpt>
      <trkpt lat="41.37904" lon="9.17829">
        <ele>90.501342773438</ele>
        <time>2015-06-21T12:15:56Z</time>
      </trkpt>
      <trkpt lat="41.37875" lon="9.1781">
        <ele>87.136596679688</ele>
        <time>2015-06-21T12:16:20Z</time>
      </trkpt>
      <trkpt lat="41.37855" lon="9.178">
        <ele>84.252685546875</ele>
        <time>2015-06-21T12:16:37Z</time>
      </trkpt>
      <trkpt lat="41.37822" lon="9.17782">
        <ele>81.849365234375</ele>
        <time>2015-06-21T12:17:04Z</time>
      </trkpt>
      <trkpt lat="41.37794" lon="9.17785">
        <ele>78.484741210938</ele>
        <time>2015-06-21T12:17:26Z</time>
      </trkpt>
      <trkpt lat="41.37773" lon="9.17813">
        <ele>76.562133789062</ele>
        <time>2015-06-21T12:17:49Z</time>
      </trkpt>
      <trkpt lat="41.3775" lon="9.17827">
        <ele>75.120239257812</ele>
        <time>2015-06-21T12:18:08Z</time>
      </trkpt>
      <trkpt lat="41.3772" lon="9.17809">
        <ele>77.5234375</ele>
        <time>2015-06-21T12:18:32Z</time>
      </trkpt>
      <trkpt lat="41.37698" lon="9.17788">
        <ele>77.5234375</ele>
        <time>2015-06-21T12:18:52Z</time>
      </trkpt>
      <trkpt lat="41.37701" lon="9.17781">
        <ele>77.5234375</ele>
        <time>2015-06-21T12:18:57Z</time>
      </trkpt>
      <trkpt lat="41.3772" lon="9.17756">
        <ele>77.5234375</ele>
        <time>2015-06-21T12:19:16Z</time>
      </trkpt>
      <trkpt lat="41.37719" lon="9.1775">
        <ele>78.484741210938</ele>
        <time>2015-06-21T12:19:20Z</time>
      </trkpt>
      <trkpt lat="41.37712" lon="9.17704">
        <ele>80.407470703125</ele>
        <time>2015-06-21T12:19:46Z</time>
      </trkpt>
      <trkpt lat="41.37716" lon="9.17663">
        <ele>82.330078125</ele>
        <time>2015-06-21T12:20:09Z</time>
      </trkpt>
      <trkpt lat="41.37708" lon="9.1764">
        <ele>83.77197265625</ele>
        <time>2015-06-21T12:20:24Z</time>
      </trkpt>
      <trkpt lat="41.37701" lon="9.17651">
        <ele>85.213989257812</ele>
        <time>2015-06-21T12:20:34Z</time>
      </trkpt>
      <trkpt lat="41.37698" lon="9.17671">
        <ele>88.578735351562</ele>
        <time>2015-06-21T12:20:46Z</time>
      </trkpt>
      <trkpt lat="41.37684" lon="9.17707">
        <ele>90.98193359375</ele>
        <time>2015-06-21T12:21:10Z</time>
      </trkpt>
      <trkpt lat="41.37669" lon="9.17735">
        <ele>93.865844726562</ele>
        <time>2015-06-21T12:21:30Z</time>
      </trkpt>
      <trkpt lat="41.37644" lon="9.17764">
        <ele>96.749877929688</ele>
        <time>2015-06-21T12:21:55Z</time>
      </trkpt>
      <trkpt lat="41.37625" lon="9.17772">
        <ele>98.672485351562</ele>
        <time>2015-06-21T12:22:10Z</time>
      </trkpt>
      <trkpt lat="41.37594" lon="9.17773">
        <ele>100.11450195312</ele>
        <time>2015-06-21T12:22:32Z</time>
      </trkpt>
      <trkpt lat="41.37566" lon="9.17797">
        <ele>102.037109375</ele>
        <time>2015-06-21T12:22:56Z</time>
      </trkpt>
      <trkpt lat="41.37541" lon="9.17817">
        <ele>105.40173339844</ele>
        <time>2015-06-21T12:23:17Z</time>
      </trkpt>
      <trkpt lat="41.37511" lon="9.1784">
        <ele>106.84362792969</ele>
        <time>2015-06-21T12:23:42Z</time>
      </trkpt>
      <trkpt lat="41.3748" lon="9.17868">
        <ele>106.36303710938</ele>
        <time>2015-06-21T12:24:09Z</time>
      </trkpt>
      <trkpt lat="41.37454" lon="9.17894">
        <ele>105.40173339844</ele>
        <time>2015-06-21T12:24:34Z</time>
      </trkpt>
      <trkpt lat="41.37431" lon="9.17909">
        <ele>102.99829101562</ele>
        <time>2015-06-21T12:24:55Z</time>
      </trkpt>
      <trkpt lat="41.37421" lon="9.17919">
        <ele>102.037109375</ele>
        <time>2015-06-21T12:25:12Z</time>
      </trkpt>
      <trkpt lat="41.37421" lon="9.17919">
        <ele>102.99829101562</ele>
        <time>2015-06-21T12:25:13Z</time>
      </trkpt>
    </trkseg>
  </trk>
</gpx>